<?xml version="1.0" encoding="UTF-8" standalone="no" ?>
<gpx xmlns="http://www.topografix.com/GPX/1/1" xmlns:xsi="http://www.w3.org/2001/XMLSchema-instance" xsi:schemaLocation="http://www.topografix.com/GPX/1/1 http://www.topografix.com/GPX/1/1/gpx.xsd" version="1.1" creator="VisuGPX - https://www.visugpx.com">
  <metadata>
    <name>RSPFY-petite-Houssière</name>
    <desc><![CDATA[boucle de marche nordique au départ du parking de la petite Houssière passant par Fourcherolles, Champ Romery et le bois des Maréchaux.]]></desc>
  </metadata>
  <trk>
    <name><![CDATA[2025-03-18 08:56]]></name>
    <desc><![CDATA[<p>Heure de départ: 08:56 18 mars 2025<br/>Heure d'arrivée: 11:43 18 mars 2025<br/>Distance: 11,7 km (02:46)<br/>Temps déplacement: 02:21<br/>Vitesse moyenne: 4,21 km/h<br/>Vitesse moyenne mouv.: 4,98 km/h<br/>Vitesse Max.: 7,09 km/h<br/>Altitude minimale: 102 m<br/>Altitude maximale: 178 m<br/>Vitesse de montée: 187,5 m/h<br/>Vitesse de descente: -186,5 m/h<br/>Gain d'altitude: 256 m<br/>Perte d'altitude: -253 m<br/>Temps de montée: 01:21<br/>Temps de descente: 01:21<br/></p><hr align="center" width="480" style="height: 2px; width: 517px"/>]]></desc>
    <trkseg>
      <trkpt lat="48.69137" lon="1.96038">
        <ele>173</ele>
        <time>2025-03-18T07:56:42Z</time>
      </trkpt>
      <trkpt lat="48.6914" lon="1.96024">
        <ele>173</ele>
        <time>2025-03-18T07:58:54Z</time>
      </trkpt>
      <trkpt lat="48.69147" lon="1.96013">
        <ele>172.7</ele>
        <time>2025-03-18T07:58:59Z</time>
      </trkpt>
      <trkpt lat="48.69154" lon="1.96003">
        <ele>172.4</ele>
        <time>2025-03-18T07:59:05Z</time>
      </trkpt>
      <trkpt lat="48.69162" lon="1.95996">
        <ele>172.2</ele>
        <time>2025-03-18T07:59:11Z</time>
      </trkpt>
      <trkpt lat="48.6917" lon="1.95988">
        <ele>171.8</ele>
        <time>2025-03-18T07:59:17Z</time>
      </trkpt>
      <trkpt lat="48.69179" lon="1.95981">
        <ele>171.4</ele>
        <time>2025-03-18T07:59:23Z</time>
      </trkpt>
      <trkpt lat="48.69187" lon="1.95974">
        <ele>171.2</ele>
        <time>2025-03-18T07:59:29Z</time>
      </trkpt>
      <trkpt lat="48.69196" lon="1.95967">
        <ele>170.8</ele>
        <time>2025-03-18T07:59:36Z</time>
      </trkpt>
      <trkpt lat="48.69204" lon="1.95959">
        <ele>170.1</ele>
        <time>2025-03-18T07:59:42Z</time>
      </trkpt>
      <trkpt lat="48.69213" lon="1.95953">
        <ele>169.5</ele>
        <time>2025-03-18T07:59:48Z</time>
      </trkpt>
      <trkpt lat="48.69221" lon="1.95949">
        <ele>168.9</ele>
        <time>2025-03-18T07:59:55Z</time>
      </trkpt>
      <trkpt lat="48.6923" lon="1.9595">
        <ele>167.9</ele>
        <time>2025-03-18T08:00:24Z</time>
      </trkpt>
      <trkpt lat="48.69232" lon="1.95965">
        <ele>167.2</ele>
        <time>2025-03-18T08:00:43Z</time>
      </trkpt>
      <trkpt lat="48.69239" lon="1.95976">
        <ele>166.2</ele>
        <time>2025-03-18T08:00:51Z</time>
      </trkpt>
      <trkpt lat="48.69242" lon="1.9599">
        <ele>165.4</ele>
        <time>2025-03-18T08:01:01Z</time>
      </trkpt>
      <trkpt lat="48.6925" lon="1.96">
        <ele>164</ele>
        <time>2025-03-18T08:01:08Z</time>
      </trkpt>
      <trkpt lat="48.69258" lon="1.96009">
        <ele>163.1</ele>
        <time>2025-03-18T08:01:15Z</time>
      </trkpt>
      <trkpt lat="48.69267" lon="1.96014">
        <ele>161.7</ele>
        <time>2025-03-18T08:01:21Z</time>
      </trkpt>
      <trkpt lat="48.69271" lon="1.96028">
        <ele>161.3</ele>
        <time>2025-03-18T08:01:28Z</time>
      </trkpt>
      <trkpt lat="48.69277" lon="1.9604">
        <ele>160.5</ele>
        <time>2025-03-18T08:01:36Z</time>
      </trkpt>
      <trkpt lat="48.69284" lon="1.96051">
        <ele>160.1</ele>
        <time>2025-03-18T08:01:44Z</time>
      </trkpt>
      <trkpt lat="48.69291" lon="1.96062">
        <ele>159.4</ele>
        <time>2025-03-18T08:01:52Z</time>
      </trkpt>
      <trkpt lat="48.69298" lon="1.96073">
        <ele>158.7</ele>
        <time>2025-03-18T08:02:00Z</time>
      </trkpt>
      <trkpt lat="48.69304" lon="1.96084">
        <ele>158.2</ele>
        <time>2025-03-18T08:02:07Z</time>
      </trkpt>
      <trkpt lat="48.69309" lon="1.96096">
        <ele>158.1</ele>
        <time>2025-03-18T08:02:14Z</time>
      </trkpt>
      <trkpt lat="48.69317" lon="1.96105">
        <ele>157.5</ele>
        <time>2025-03-18T08:02:21Z</time>
      </trkpt>
      <trkpt lat="48.69324" lon="1.96116">
        <ele>157.2</ele>
        <time>2025-03-18T08:02:28Z</time>
      </trkpt>
      <trkpt lat="48.69331" lon="1.96127">
        <ele>156.4</ele>
        <time>2025-03-18T08:02:35Z</time>
      </trkpt>
      <trkpt lat="48.69331" lon="1.96141">
        <ele>156.5</ele>
        <time>2025-03-18T08:02:42Z</time>
      </trkpt>
      <trkpt lat="48.69339" lon="1.9615">
        <ele>155.5</ele>
        <time>2025-03-18T08:02:49Z</time>
      </trkpt>
      <trkpt lat="48.69346" lon="1.9616">
        <ele>154.5</ele>
        <time>2025-03-18T08:02:56Z</time>
      </trkpt>
      <trkpt lat="48.69354" lon="1.96169">
        <ele>153.2</ele>
        <time>2025-03-18T08:03:02Z</time>
      </trkpt>
      <trkpt lat="48.69362" lon="1.9618">
        <ele>151.9</ele>
        <time>2025-03-18T08:03:08Z</time>
      </trkpt>
      <trkpt lat="48.6937" lon="1.96187">
        <ele>150.9</ele>
        <time>2025-03-18T08:03:14Z</time>
      </trkpt>
      <trkpt lat="48.69375" lon="1.96199">
        <ele>149.9</ele>
        <time>2025-03-18T08:03:20Z</time>
      </trkpt>
      <trkpt lat="48.69382" lon="1.96211">
        <ele>148.6</ele>
        <time>2025-03-18T08:03:28Z</time>
      </trkpt>
      <trkpt lat="48.69387" lon="1.96222">
        <ele>147.3</ele>
        <time>2025-03-18T08:03:37Z</time>
      </trkpt>
      <trkpt lat="48.69393" lon="1.96234">
        <ele>147.4</ele>
        <time>2025-03-18T08:03:46Z</time>
      </trkpt>
      <trkpt lat="48.694" lon="1.96245">
        <ele>147.8</ele>
        <time>2025-03-18T08:03:54Z</time>
      </trkpt>
      <trkpt lat="48.69407" lon="1.96255">
        <ele>148.1</ele>
        <time>2025-03-18T08:04:01Z</time>
      </trkpt>
      <trkpt lat="48.69413" lon="1.96267">
        <ele>148.2</ele>
        <time>2025-03-18T08:04:08Z</time>
      </trkpt>
      <trkpt lat="48.69421" lon="1.96276">
        <ele>148.8</ele>
        <time>2025-03-18T08:04:15Z</time>
      </trkpt>
      <trkpt lat="48.69427" lon="1.96286">
        <ele>149.5</ele>
        <time>2025-03-18T08:04:22Z</time>
      </trkpt>
      <trkpt lat="48.69432" lon="1.96299">
        <ele>149.6</ele>
        <time>2025-03-18T08:04:29Z</time>
      </trkpt>
      <trkpt lat="48.69437" lon="1.9631">
        <ele>149.9</ele>
        <time>2025-03-18T08:04:36Z</time>
      </trkpt>
      <trkpt lat="48.69444" lon="1.96321">
        <ele>150.9</ele>
        <time>2025-03-18T08:04:44Z</time>
      </trkpt>
      <trkpt lat="48.6945" lon="1.96332">
        <ele>152.5</ele>
        <time>2025-03-18T08:04:52Z</time>
      </trkpt>
      <trkpt lat="48.69456" lon="1.96343">
        <ele>154.1</ele>
        <time>2025-03-18T08:05:00Z</time>
      </trkpt>
      <trkpt lat="48.69464" lon="1.96352">
        <ele>156.3</ele>
        <time>2025-03-18T08:05:08Z</time>
      </trkpt>
      <trkpt lat="48.69469" lon="1.96364">
        <ele>158.3</ele>
        <time>2025-03-18T08:05:16Z</time>
      </trkpt>
      <trkpt lat="48.69476" lon="1.96374">
        <ele>160.3</ele>
        <time>2025-03-18T08:05:25Z</time>
      </trkpt>
      <trkpt lat="48.69482" lon="1.96384">
        <ele>162</ele>
        <time>2025-03-18T08:05:33Z</time>
      </trkpt>
      <trkpt lat="48.69489" lon="1.96395">
        <ele>163.6</ele>
        <time>2025-03-18T08:05:43Z</time>
      </trkpt>
      <trkpt lat="48.69496" lon="1.96406">
        <ele>165.1</ele>
        <time>2025-03-18T08:05:53Z</time>
      </trkpt>
      <trkpt lat="48.69502" lon="1.96416">
        <ele>166.3</ele>
        <time>2025-03-18T08:06:02Z</time>
      </trkpt>
      <trkpt lat="48.69509" lon="1.96427">
        <ele>166.9</ele>
        <time>2025-03-18T08:06:11Z</time>
      </trkpt>
      <trkpt lat="48.69515" lon="1.96437">
        <ele>167.6</ele>
        <time>2025-03-18T08:06:19Z</time>
      </trkpt>
      <trkpt lat="48.69522" lon="1.96448">
        <ele>168.4</ele>
        <time>2025-03-18T08:06:27Z</time>
      </trkpt>
      <trkpt lat="48.69528" lon="1.96461">
        <ele>169</ele>
        <time>2025-03-18T08:06:35Z</time>
      </trkpt>
      <trkpt lat="48.69534" lon="1.96472">
        <ele>169.2</ele>
        <time>2025-03-18T08:06:42Z</time>
      </trkpt>
      <trkpt lat="48.69542" lon="1.96482">
        <ele>169.2</ele>
        <time>2025-03-18T08:06:49Z</time>
      </trkpt>
      <trkpt lat="48.69549" lon="1.96494">
        <ele>169</ele>
        <time>2025-03-18T08:06:56Z</time>
      </trkpt>
      <trkpt lat="48.69556" lon="1.96505">
        <ele>168.8</ele>
        <time>2025-03-18T08:07:03Z</time>
      </trkpt>
      <trkpt lat="48.69563" lon="1.96516">
        <ele>168.7</ele>
        <time>2025-03-18T08:07:10Z</time>
      </trkpt>
      <trkpt lat="48.6957" lon="1.96528">
        <ele>168.5</ele>
        <time>2025-03-18T08:07:17Z</time>
      </trkpt>
      <trkpt lat="48.69577" lon="1.96538">
        <ele>168.7</ele>
        <time>2025-03-18T08:07:24Z</time>
      </trkpt>
      <trkpt lat="48.69583" lon="1.9655">
        <ele>169</ele>
        <time>2025-03-18T08:07:31Z</time>
      </trkpt>
      <trkpt lat="48.6959" lon="1.96559">
        <ele>169.2</ele>
        <time>2025-03-18T08:07:37Z</time>
      </trkpt>
      <trkpt lat="48.69597" lon="1.96568">
        <ele>169.2</ele>
        <time>2025-03-18T08:07:44Z</time>
      </trkpt>
      <trkpt lat="48.69602" lon="1.9658">
        <ele>169.4</ele>
        <time>2025-03-18T08:07:51Z</time>
      </trkpt>
      <trkpt lat="48.69609" lon="1.96591">
        <ele>169.8</ele>
        <time>2025-03-18T08:07:58Z</time>
      </trkpt>
      <trkpt lat="48.69615" lon="1.96602">
        <ele>170</ele>
        <time>2025-03-18T08:08:05Z</time>
      </trkpt>
      <trkpt lat="48.69622" lon="1.96612">
        <ele>170</ele>
        <time>2025-03-18T08:08:12Z</time>
      </trkpt>
      <trkpt lat="48.69629" lon="1.96621">
        <ele>169.9</ele>
        <time>2025-03-18T08:08:19Z</time>
      </trkpt>
      <trkpt lat="48.69638" lon="1.96625">
        <ele>170</ele>
        <time>2025-03-18T08:08:26Z</time>
      </trkpt>
      <trkpt lat="48.69648" lon="1.96629">
        <ele>170</ele>
        <time>2025-03-18T08:08:33Z</time>
      </trkpt>
      <trkpt lat="48.69657" lon="1.96633">
        <ele>170</ele>
        <time>2025-03-18T08:08:41Z</time>
      </trkpt>
      <trkpt lat="48.69666" lon="1.96637">
        <ele>170</ele>
        <time>2025-03-18T08:08:49Z</time>
      </trkpt>
      <trkpt lat="48.69674" lon="1.96641">
        <ele>169.7</ele>
        <time>2025-03-18T08:08:56Z</time>
      </trkpt>
      <trkpt lat="48.69684" lon="1.96644">
        <ele>169.2</ele>
        <time>2025-03-18T08:09:03Z</time>
      </trkpt>
      <trkpt lat="48.69692" lon="1.96649">
        <ele>168.7</ele>
        <time>2025-03-18T08:09:10Z</time>
      </trkpt>
      <trkpt lat="48.697" lon="1.96656">
        <ele>168.2</ele>
        <time>2025-03-18T08:09:17Z</time>
      </trkpt>
      <trkpt lat="48.69709" lon="1.96661">
        <ele>167.7</ele>
        <time>2025-03-18T08:09:26Z</time>
      </trkpt>
      <trkpt lat="48.69716" lon="1.9667">
        <ele>167.1</ele>
        <time>2025-03-18T08:09:42Z</time>
      </trkpt>
      <trkpt lat="48.69716" lon="1.96655">
        <ele>167.6</ele>
        <time>2025-03-18T08:10:15Z</time>
      </trkpt>
      <trkpt lat="48.69722" lon="1.96643">
        <ele>167.9</ele>
        <time>2025-03-18T08:10:24Z</time>
      </trkpt>
      <trkpt lat="48.69727" lon="1.9663">
        <ele>167.9</ele>
        <time>2025-03-18T08:10:32Z</time>
      </trkpt>
      <trkpt lat="48.69733" lon="1.96619">
        <ele>167.9</ele>
        <time>2025-03-18T08:10:40Z</time>
      </trkpt>
      <trkpt lat="48.69738" lon="1.96607">
        <ele>168.1</ele>
        <time>2025-03-18T08:10:47Z</time>
      </trkpt>
      <trkpt lat="48.69743" lon="1.96595">
        <ele>168.1</ele>
        <time>2025-03-18T08:10:54Z</time>
      </trkpt>
      <trkpt lat="48.69749" lon="1.96582">
        <ele>168.1</ele>
        <time>2025-03-18T08:11:01Z</time>
      </trkpt>
      <trkpt lat="48.69754" lon="1.96571">
        <ele>168.4</ele>
        <time>2025-03-18T08:11:08Z</time>
      </trkpt>
      <trkpt lat="48.6976" lon="1.96559">
        <ele>168.6</ele>
        <time>2025-03-18T08:11:15Z</time>
      </trkpt>
      <trkpt lat="48.69769" lon="1.96554">
        <ele>168.4</ele>
        <time>2025-03-18T08:11:22Z</time>
      </trkpt>
      <trkpt lat="48.69779" lon="1.96556">
        <ele>168</ele>
        <time>2025-03-18T08:11:28Z</time>
      </trkpt>
      <trkpt lat="48.69779" lon="1.96571">
        <ele>168</ele>
        <time>2025-03-18T08:11:33Z</time>
      </trkpt>
      <trkpt lat="48.6978" lon="1.96585">
        <ele>167.8</ele>
        <time>2025-03-18T08:11:39Z</time>
      </trkpt>
      <trkpt lat="48.69783" lon="1.96598">
        <ele>167.3</ele>
        <time>2025-03-18T08:11:45Z</time>
      </trkpt>
      <trkpt lat="48.69786" lon="1.96613">
        <ele>166.6</ele>
        <time>2025-03-18T08:11:52Z</time>
      </trkpt>
      <trkpt lat="48.69788" lon="1.96629">
        <ele>166</ele>
        <time>2025-03-18T08:11:59Z</time>
      </trkpt>
      <trkpt lat="48.6979" lon="1.96642">
        <ele>165.4</ele>
        <time>2025-03-18T08:12:05Z</time>
      </trkpt>
      <trkpt lat="48.69792" lon="1.96655">
        <ele>164.9</ele>
        <time>2025-03-18T08:12:11Z</time>
      </trkpt>
      <trkpt lat="48.69794" lon="1.9667">
        <ele>164.2</ele>
        <time>2025-03-18T08:12:18Z</time>
      </trkpt>
      <trkpt lat="48.69795" lon="1.96684">
        <ele>163.1</ele>
        <time>2025-03-18T08:12:24Z</time>
      </trkpt>
      <trkpt lat="48.69797" lon="1.96699">
        <ele>161.8</ele>
        <time>2025-03-18T08:12:31Z</time>
      </trkpt>
      <trkpt lat="48.69804" lon="1.9671">
        <ele>160.4</ele>
        <time>2025-03-18T08:12:38Z</time>
      </trkpt>
      <trkpt lat="48.69808" lon="1.96723">
        <ele>159</ele>
        <time>2025-03-18T08:12:46Z</time>
      </trkpt>
      <trkpt lat="48.69811" lon="1.96737">
        <ele>157.1</ele>
        <time>2025-03-18T08:12:53Z</time>
      </trkpt>
      <trkpt lat="48.69818" lon="1.96746">
        <ele>155.9</ele>
        <time>2025-03-18T08:13:00Z</time>
      </trkpt>
      <trkpt lat="48.69824" lon="1.96757">
        <ele>154.6</ele>
        <time>2025-03-18T08:13:08Z</time>
      </trkpt>
      <trkpt lat="48.69832" lon="1.96767">
        <ele>153.5</ele>
        <time>2025-03-18T08:13:15Z</time>
      </trkpt>
      <trkpt lat="48.6984" lon="1.96774">
        <ele>152.3</ele>
        <time>2025-03-18T08:13:22Z</time>
      </trkpt>
      <trkpt lat="48.69848" lon="1.96783">
        <ele>150.6</ele>
        <time>2025-03-18T08:13:31Z</time>
      </trkpt>
      <trkpt lat="48.69857" lon="1.96789">
        <ele>149.4</ele>
        <time>2025-03-18T08:13:39Z</time>
      </trkpt>
      <trkpt lat="48.69866" lon="1.96794">
        <ele>148.4</ele>
        <time>2025-03-18T08:13:46Z</time>
      </trkpt>
      <trkpt lat="48.69875" lon="1.96798">
        <ele>147.2</ele>
        <time>2025-03-18T08:13:54Z</time>
      </trkpt>
      <trkpt lat="48.69884" lon="1.96805">
        <ele>145.5</ele>
        <time>2025-03-18T08:14:02Z</time>
      </trkpt>
      <trkpt lat="48.69893" lon="1.96812">
        <ele>143.9</ele>
        <time>2025-03-18T08:14:09Z</time>
      </trkpt>
      <trkpt lat="48.69901" lon="1.96822">
        <ele>142</ele>
        <time>2025-03-18T08:14:17Z</time>
      </trkpt>
      <trkpt lat="48.69909" lon="1.96829">
        <ele>140.8</ele>
        <time>2025-03-18T08:14:24Z</time>
      </trkpt>
      <trkpt lat="48.69919" lon="1.9683">
        <ele>140.2</ele>
        <time>2025-03-18T08:14:31Z</time>
      </trkpt>
      <trkpt lat="48.69928" lon="1.96835">
        <ele>139.1</ele>
        <time>2025-03-18T08:14:38Z</time>
      </trkpt>
      <trkpt lat="48.69936" lon="1.96841">
        <ele>138</ele>
        <time>2025-03-18T08:14:45Z</time>
      </trkpt>
      <trkpt lat="48.69946" lon="1.96842">
        <ele>137.2</ele>
        <time>2025-03-18T08:14:52Z</time>
      </trkpt>
      <trkpt lat="48.69955" lon="1.96846">
        <ele>136.1</ele>
        <time>2025-03-18T08:14:59Z</time>
      </trkpt>
      <trkpt lat="48.69964" lon="1.96854">
        <ele>135</ele>
        <time>2025-03-18T08:15:06Z</time>
      </trkpt>
      <trkpt lat="48.6997" lon="1.96863">
        <ele>134</ele>
        <time>2025-03-18T08:15:12Z</time>
      </trkpt>
      <trkpt lat="48.69977" lon="1.96875">
        <ele>133.6</ele>
        <time>2025-03-18T08:15:19Z</time>
      </trkpt>
      <trkpt lat="48.69982" lon="1.96887">
        <ele>133.4</ele>
        <time>2025-03-18T08:15:26Z</time>
      </trkpt>
      <trkpt lat="48.69985" lon="1.969">
        <ele>132.9</ele>
        <time>2025-03-18T08:15:33Z</time>
      </trkpt>
      <trkpt lat="48.69989" lon="1.96913">
        <ele>132.4</ele>
        <time>2025-03-18T08:15:39Z</time>
      </trkpt>
      <trkpt lat="48.69989" lon="1.96928">
        <ele>131.5</ele>
        <time>2025-03-18T08:15:46Z</time>
      </trkpt>
      <trkpt lat="48.6999" lon="1.96943">
        <ele>130.7</ele>
        <time>2025-03-18T08:15:53Z</time>
      </trkpt>
      <trkpt lat="48.69994" lon="1.96957">
        <ele>130.4</ele>
        <time>2025-03-18T08:16:00Z</time>
      </trkpt>
      <trkpt lat="48.69997" lon="1.96971">
        <ele>130</ele>
        <time>2025-03-18T08:16:07Z</time>
      </trkpt>
      <trkpt lat="48.69998" lon="1.96986">
        <ele>129.5</ele>
        <time>2025-03-18T08:16:14Z</time>
      </trkpt>
      <trkpt lat="48.7" lon="1.97">
        <ele>129</ele>
        <time>2025-03-18T08:16:21Z</time>
      </trkpt>
      <trkpt lat="48.70002" lon="1.97013">
        <ele>127.9</ele>
        <time>2025-03-18T08:16:28Z</time>
      </trkpt>
      <trkpt lat="48.70003" lon="1.97029">
        <ele>126.8</ele>
        <time>2025-03-18T08:16:36Z</time>
      </trkpt>
      <trkpt lat="48.70004" lon="1.97043">
        <ele>126.2</ele>
        <time>2025-03-18T08:16:43Z</time>
      </trkpt>
      <trkpt lat="48.70007" lon="1.97056">
        <ele>125.5</ele>
        <time>2025-03-18T08:16:50Z</time>
      </trkpt>
      <trkpt lat="48.70009" lon="1.9707">
        <ele>124.5</ele>
        <time>2025-03-18T08:16:58Z</time>
      </trkpt>
      <trkpt lat="48.70011" lon="1.97085">
        <ele>123.5</ele>
        <time>2025-03-18T08:17:06Z</time>
      </trkpt>
      <trkpt lat="48.70013" lon="1.971">
        <ele>122.7</ele>
        <time>2025-03-18T08:17:13Z</time>
      </trkpt>
      <trkpt lat="48.70016" lon="1.97115">
        <ele>121.7</ele>
        <time>2025-03-18T08:17:20Z</time>
      </trkpt>
      <trkpt lat="48.7002" lon="1.97128">
        <ele>120.8</ele>
        <time>2025-03-18T08:17:26Z</time>
      </trkpt>
      <trkpt lat="48.70025" lon="1.97141">
        <ele>120</ele>
        <time>2025-03-18T08:17:32Z</time>
      </trkpt>
      <trkpt lat="48.70028" lon="1.97154">
        <ele>118.9</ele>
        <time>2025-03-18T08:17:38Z</time>
      </trkpt>
      <trkpt lat="48.70033" lon="1.97168">
        <ele>117.8</ele>
        <time>2025-03-18T08:17:45Z</time>
      </trkpt>
      <trkpt lat="48.70039" lon="1.97178">
        <ele>117.2</ele>
        <time>2025-03-18T08:17:51Z</time>
      </trkpt>
      <trkpt lat="48.70044" lon="1.9719">
        <ele>116.6</ele>
        <time>2025-03-18T08:17:57Z</time>
      </trkpt>
      <trkpt lat="48.70049" lon="1.97204">
        <ele>115.9</ele>
        <time>2025-03-18T08:18:04Z</time>
      </trkpt>
      <trkpt lat="48.70054" lon="1.97216">
        <ele>115.3</ele>
        <time>2025-03-18T08:18:10Z</time>
      </trkpt>
      <trkpt lat="48.70058" lon="1.97229">
        <ele>114.7</ele>
        <time>2025-03-18T08:18:17Z</time>
      </trkpt>
      <trkpt lat="48.70065" lon="1.9724">
        <ele>114</ele>
        <time>2025-03-18T08:18:24Z</time>
      </trkpt>
      <trkpt lat="48.7007" lon="1.97254">
        <ele>113.3</ele>
        <time>2025-03-18T08:18:30Z</time>
      </trkpt>
      <trkpt lat="48.70075" lon="1.97267">
        <ele>112.7</ele>
        <time>2025-03-18T08:18:37Z</time>
      </trkpt>
      <trkpt lat="48.70079" lon="1.97281">
        <ele>112.1</ele>
        <time>2025-03-18T08:18:44Z</time>
      </trkpt>
      <trkpt lat="48.70082" lon="1.97294">
        <ele>111.5</ele>
        <time>2025-03-18T08:18:51Z</time>
      </trkpt>
      <trkpt lat="48.70088" lon="1.97306">
        <ele>110.8</ele>
        <time>2025-03-18T08:18:58Z</time>
      </trkpt>
      <trkpt lat="48.70092" lon="1.97319">
        <ele>110.7</ele>
        <time>2025-03-18T08:19:17Z</time>
      </trkpt>
      <trkpt lat="48.701" lon="1.9733">
        <ele>110.4</ele>
        <time>2025-03-18T08:19:28Z</time>
      </trkpt>
      <trkpt lat="48.70105" lon="1.97343">
        <ele>110</ele>
        <time>2025-03-18T08:19:36Z</time>
      </trkpt>
      <trkpt lat="48.70111" lon="1.97354">
        <ele>109.3</ele>
        <time>2025-03-18T08:19:43Z</time>
      </trkpt>
      <trkpt lat="48.70118" lon="1.97364">
        <ele>108.6</ele>
        <time>2025-03-18T08:19:50Z</time>
      </trkpt>
      <trkpt lat="48.70124" lon="1.97375">
        <ele>108.1</ele>
        <time>2025-03-18T08:19:57Z</time>
      </trkpt>
      <trkpt lat="48.70131" lon="1.97385">
        <ele>107.4</ele>
        <time>2025-03-18T08:20:04Z</time>
      </trkpt>
      <trkpt lat="48.70138" lon="1.97395">
        <ele>107</ele>
        <time>2025-03-18T08:20:11Z</time>
      </trkpt>
      <trkpt lat="48.70145" lon="1.97404">
        <ele>106.9</ele>
        <time>2025-03-18T08:20:18Z</time>
      </trkpt>
      <trkpt lat="48.70152" lon="1.97414">
        <ele>106.6</ele>
        <time>2025-03-18T08:20:25Z</time>
      </trkpt>
      <trkpt lat="48.70159" lon="1.97424">
        <ele>105.9</ele>
        <time>2025-03-18T08:20:32Z</time>
      </trkpt>
      <trkpt lat="48.70162" lon="1.97438">
        <ele>105.3</ele>
        <time>2025-03-18T08:20:41Z</time>
      </trkpt>
      <trkpt lat="48.7017" lon="1.97434">
        <ele>105.5</ele>
        <time>2025-03-18T08:20:59Z</time>
      </trkpt>
      <trkpt lat="48.7018" lon="1.97437">
        <ele>105.6</ele>
        <time>2025-03-18T08:21:06Z</time>
      </trkpt>
      <trkpt lat="48.70189" lon="1.97443">
        <ele>105.8</ele>
        <time>2025-03-18T08:21:15Z</time>
      </trkpt>
      <trkpt lat="48.70198" lon="1.97437">
        <ele>106.4</ele>
        <time>2025-03-18T08:21:38Z</time>
      </trkpt>
      <trkpt lat="48.70203" lon="1.97426">
        <ele>107</ele>
        <time>2025-03-18T08:21:46Z</time>
      </trkpt>
      <trkpt lat="48.70208" lon="1.97412">
        <ele>107.4</ele>
        <time>2025-03-18T08:21:55Z</time>
      </trkpt>
      <trkpt lat="48.70201" lon="1.97422">
        <ele>106.8</ele>
        <time>2025-03-18T08:22:18Z</time>
      </trkpt>
      <trkpt lat="48.70196" lon="1.97434">
        <ele>106.2</ele>
        <time>2025-03-18T08:22:35Z</time>
      </trkpt>
      <trkpt lat="48.702" lon="1.97421">
        <ele>106.6</ele>
        <time>2025-03-18T08:23:12Z</time>
      </trkpt>
      <trkpt lat="48.70205" lon="1.97408">
        <ele>107.1</ele>
        <time>2025-03-18T08:23:48Z</time>
      </trkpt>
      <trkpt lat="48.70211" lon="1.97395">
        <ele>107.3</ele>
        <time>2025-03-18T08:23:55Z</time>
      </trkpt>
      <trkpt lat="48.70217" lon="1.97383">
        <ele>107.5</ele>
        <time>2025-03-18T08:24:02Z</time>
      </trkpt>
      <trkpt lat="48.70226" lon="1.97378">
        <ele>108</ele>
        <time>2025-03-18T08:24:09Z</time>
      </trkpt>
      <trkpt lat="48.70235" lon="1.97383">
        <ele>109.2</ele>
        <time>2025-03-18T08:24:16Z</time>
      </trkpt>
      <trkpt lat="48.70245" lon="1.97384">
        <ele>110.3</ele>
        <time>2025-03-18T08:24:24Z</time>
      </trkpt>
      <trkpt lat="48.70255" lon="1.97388">
        <ele>112.2</ele>
        <time>2025-03-18T08:24:32Z</time>
      </trkpt>
      <trkpt lat="48.70263" lon="1.97393">
        <ele>114.6</ele>
        <time>2025-03-18T08:24:41Z</time>
      </trkpt>
      <trkpt lat="48.70273" lon="1.97395">
        <ele>117.2</ele>
        <time>2025-03-18T08:24:51Z</time>
      </trkpt>
      <trkpt lat="48.70279" lon="1.97384">
        <ele>118</ele>
        <time>2025-03-18T08:24:58Z</time>
      </trkpt>
      <trkpt lat="48.70278" lon="1.97371">
        <ele>116.8</ele>
        <time>2025-03-18T08:25:07Z</time>
      </trkpt>
      <trkpt lat="48.70287" lon="1.97364">
        <ele>119.3</ele>
        <time>2025-03-18T08:25:20Z</time>
      </trkpt>
      <trkpt lat="48.70292" lon="1.97375">
        <ele>121.8</ele>
        <time>2025-03-18T08:25:29Z</time>
      </trkpt>
      <trkpt lat="48.70301" lon="1.97376">
        <ele>125.1</ele>
        <time>2025-03-18T08:25:39Z</time>
      </trkpt>
      <trkpt lat="48.7031" lon="1.97381">
        <ele>128.9</ele>
        <time>2025-03-18T08:26:00Z</time>
      </trkpt>
      <trkpt lat="48.70312" lon="1.97395">
        <ele>130.3</ele>
        <time>2025-03-18T08:26:10Z</time>
      </trkpt>
      <trkpt lat="48.7032" lon="1.9739">
        <ele>134</ele>
        <time>2025-03-18T08:26:22Z</time>
      </trkpt>
      <trkpt lat="48.70325" lon="1.97378">
        <ele>135.5</ele>
        <time>2025-03-18T08:26:34Z</time>
      </trkpt>
      <trkpt lat="48.7033" lon="1.97367">
        <ele>137.7</ele>
        <time>2025-03-18T08:26:47Z</time>
      </trkpt>
      <trkpt lat="48.70327" lon="1.97354">
        <ele>135.5</ele>
        <time>2025-03-18T08:26:58Z</time>
      </trkpt>
      <trkpt lat="48.70335" lon="1.97346">
        <ele>138.7</ele>
        <time>2025-03-18T08:27:08Z</time>
      </trkpt>
      <trkpt lat="48.70343" lon="1.97339">
        <ele>142</ele>
        <time>2025-03-18T08:27:20Z</time>
      </trkpt>
      <trkpt lat="48.70351" lon="1.97329">
        <ele>145</ele>
        <time>2025-03-18T08:27:33Z</time>
      </trkpt>
      <trkpt lat="48.7036" lon="1.97324">
        <ele>148.8</ele>
        <time>2025-03-18T08:27:44Z</time>
      </trkpt>
      <trkpt lat="48.70368" lon="1.97316">
        <ele>151.2</ele>
        <time>2025-03-18T08:27:59Z</time>
      </trkpt>
      <trkpt lat="48.70374" lon="1.97305">
        <ele>152.5</ele>
        <time>2025-03-18T08:28:10Z</time>
      </trkpt>
      <trkpt lat="48.7038" lon="1.97294">
        <ele>154.6</ele>
        <time>2025-03-18T08:28:21Z</time>
      </trkpt>
      <trkpt lat="48.70384" lon="1.97282">
        <ele>155.5</ele>
        <time>2025-03-18T08:28:30Z</time>
      </trkpt>
      <trkpt lat="48.70391" lon="1.97272">
        <ele>157.2</ele>
        <time>2025-03-18T08:28:39Z</time>
      </trkpt>
      <trkpt lat="48.70399" lon="1.97266">
        <ele>158.4</ele>
        <time>2025-03-18T08:28:55Z</time>
      </trkpt>
      <trkpt lat="48.70406" lon="1.97257">
        <ele>159.4</ele>
        <time>2025-03-18T08:29:04Z</time>
      </trkpt>
      <trkpt lat="48.70414" lon="1.9725">
        <ele>160.6</ele>
        <time>2025-03-18T08:29:17Z</time>
      </trkpt>
      <trkpt lat="48.70417" lon="1.97236">
        <ele>161.6</ele>
        <time>2025-03-18T08:32:01Z</time>
      </trkpt>
      <trkpt lat="48.70415" lon="1.97221">
        <ele>161.6</ele>
        <time>2025-03-18T08:32:08Z</time>
      </trkpt>
      <trkpt lat="48.70409" lon="1.9721">
        <ele>160.6</ele>
        <time>2025-03-18T08:32:15Z</time>
      </trkpt>
      <trkpt lat="48.70404" lon="1.97198">
        <ele>159.7</ele>
        <time>2025-03-18T08:32:22Z</time>
      </trkpt>
      <trkpt lat="48.704" lon="1.97185">
        <ele>159.1</ele>
        <time>2025-03-18T08:32:29Z</time>
      </trkpt>
      <trkpt lat="48.704" lon="1.97171">
        <ele>159</ele>
        <time>2025-03-18T08:32:37Z</time>
      </trkpt>
      <trkpt lat="48.70399" lon="1.97158">
        <ele>158.6</ele>
        <time>2025-03-18T08:32:44Z</time>
      </trkpt>
      <trkpt lat="48.70397" lon="1.97144">
        <ele>157.9</ele>
        <time>2025-03-18T08:32:51Z</time>
      </trkpt>
      <trkpt lat="48.704" lon="1.97129">
        <ele>158.2</ele>
        <time>2025-03-18T08:32:59Z</time>
      </trkpt>
      <trkpt lat="48.70403" lon="1.97115">
        <ele>158.7</ele>
        <time>2025-03-18T08:33:06Z</time>
      </trkpt>
      <trkpt lat="48.70405" lon="1.97101">
        <ele>159.1</ele>
        <time>2025-03-18T08:33:13Z</time>
      </trkpt>
      <trkpt lat="48.70409" lon="1.97088">
        <ele>160</ele>
        <time>2025-03-18T08:33:20Z</time>
      </trkpt>
      <trkpt lat="48.70405" lon="1.97073">
        <ele>158.9</ele>
        <time>2025-03-18T08:33:30Z</time>
      </trkpt>
      <trkpt lat="48.70407" lon="1.97058">
        <ele>159.1</ele>
        <time>2025-03-18T08:33:37Z</time>
      </trkpt>
      <trkpt lat="48.70409" lon="1.97044">
        <ele>159.4</ele>
        <time>2025-03-18T08:33:44Z</time>
      </trkpt>
      <trkpt lat="48.70414" lon="1.97031">
        <ele>160.4</ele>
        <time>2025-03-18T08:33:51Z</time>
      </trkpt>
      <trkpt lat="48.70417" lon="1.97016">
        <ele>160.6</ele>
        <time>2025-03-18T08:33:58Z</time>
      </trkpt>
      <trkpt lat="48.7042" lon="1.97001">
        <ele>160.6</ele>
        <time>2025-03-18T08:34:05Z</time>
      </trkpt>
      <trkpt lat="48.70423" lon="1.96988">
        <ele>160.1</ele>
        <time>2025-03-18T08:34:12Z</time>
      </trkpt>
      <trkpt lat="48.70433" lon="1.96985">
        <ele>161.9</ele>
        <time>2025-03-18T08:34:20Z</time>
      </trkpt>
      <trkpt lat="48.70442" lon="1.96978">
        <ele>163.5</ele>
        <time>2025-03-18T08:34:28Z</time>
      </trkpt>
      <trkpt lat="48.70435" lon="1.96967">
        <ele>161.2</ele>
        <time>2025-03-18T08:34:37Z</time>
      </trkpt>
      <trkpt lat="48.70433" lon="1.96953">
        <ele>159.9</ele>
        <time>2025-03-18T08:34:45Z</time>
      </trkpt>
      <trkpt lat="48.70437" lon="1.96941">
        <ele>160.4</ele>
        <time>2025-03-18T08:34:51Z</time>
      </trkpt>
      <trkpt lat="48.70447" lon="1.9694">
        <ele>163</ele>
        <time>2025-03-18T08:35:00Z</time>
      </trkpt>
      <trkpt lat="48.70452" lon="1.96928">
        <ele>162.7</ele>
        <time>2025-03-18T08:35:08Z</time>
      </trkpt>
      <trkpt lat="48.70447" lon="1.96915">
        <ele>161.3</ele>
        <time>2025-03-18T08:35:14Z</time>
      </trkpt>
      <trkpt lat="48.7045" lon="1.969">
        <ele>160.9</ele>
        <time>2025-03-18T08:35:21Z</time>
      </trkpt>
      <trkpt lat="48.70452" lon="1.96887">
        <ele>160.6</ele>
        <time>2025-03-18T08:35:29Z</time>
      </trkpt>
      <trkpt lat="48.70455" lon="1.96873">
        <ele>161.1</ele>
        <time>2025-03-18T08:35:36Z</time>
      </trkpt>
      <trkpt lat="48.70452" lon="1.9686">
        <ele>160.4</ele>
        <time>2025-03-18T08:35:43Z</time>
      </trkpt>
      <trkpt lat="48.70452" lon="1.96846">
        <ele>160.6</ele>
        <time>2025-03-18T08:35:50Z</time>
      </trkpt>
      <trkpt lat="48.70453" lon="1.96831">
        <ele>160.8</ele>
        <time>2025-03-18T08:35:57Z</time>
      </trkpt>
      <trkpt lat="48.70451" lon="1.96817">
        <ele>160.9</ele>
        <time>2025-03-18T08:36:04Z</time>
      </trkpt>
      <trkpt lat="48.70452" lon="1.96803">
        <ele>161.3</ele>
        <time>2025-03-18T08:36:11Z</time>
      </trkpt>
      <trkpt lat="48.70453" lon="1.96787">
        <ele>161.5</ele>
        <time>2025-03-18T08:36:18Z</time>
      </trkpt>
      <trkpt lat="48.70453" lon="1.96771">
        <ele>161.6</ele>
        <time>2025-03-18T08:36:25Z</time>
      </trkpt>
      <trkpt lat="48.70452" lon="1.96755">
        <ele>161.4</ele>
        <time>2025-03-18T08:36:32Z</time>
      </trkpt>
      <trkpt lat="48.70453" lon="1.96741">
        <ele>161.2</ele>
        <time>2025-03-18T08:36:38Z</time>
      </trkpt>
      <trkpt lat="48.70452" lon="1.96727">
        <ele>160.8</ele>
        <time>2025-03-18T08:36:44Z</time>
      </trkpt>
      <trkpt lat="48.7045" lon="1.96714">
        <ele>160.2</ele>
        <time>2025-03-18T08:36:51Z</time>
      </trkpt>
      <trkpt lat="48.70446" lon="1.967">
        <ele>159.3</ele>
        <time>2025-03-18T08:36:58Z</time>
      </trkpt>
      <trkpt lat="48.70448" lon="1.96685">
        <ele>159.8</ele>
        <time>2025-03-18T08:37:05Z</time>
      </trkpt>
      <trkpt lat="48.70446" lon="1.96671">
        <ele>159.4</ele>
        <time>2025-03-18T08:37:12Z</time>
      </trkpt>
      <trkpt lat="48.70443" lon="1.96658">
        <ele>158.4</ele>
        <time>2025-03-18T08:37:19Z</time>
      </trkpt>
      <trkpt lat="48.70443" lon="1.96643">
        <ele>158.3</ele>
        <time>2025-03-18T08:37:28Z</time>
      </trkpt>
      <trkpt lat="48.70446" lon="1.96629">
        <ele>160</ele>
        <time>2025-03-18T08:37:36Z</time>
      </trkpt>
      <trkpt lat="48.70443" lon="1.96614">
        <ele>160.3</ele>
        <time>2025-03-18T08:37:44Z</time>
      </trkpt>
      <trkpt lat="48.70436" lon="1.96603">
        <ele>158.5</ele>
        <time>2025-03-18T08:37:52Z</time>
      </trkpt>
      <trkpt lat="48.70433" lon="1.96589">
        <ele>158.3</ele>
        <time>2025-03-18T08:37:59Z</time>
      </trkpt>
      <trkpt lat="48.70429" lon="1.96577">
        <ele>157.8</ele>
        <time>2025-03-18T08:38:58Z</time>
      </trkpt>
      <trkpt lat="48.70433" lon="1.96563">
        <ele>159.5</ele>
        <time>2025-03-18T08:39:05Z</time>
      </trkpt>
      <trkpt lat="48.70436" lon="1.96549">
        <ele>160.8</ele>
        <time>2025-03-18T08:39:13Z</time>
      </trkpt>
      <trkpt lat="48.70441" lon="1.96535">
        <ele>162.5</ele>
        <time>2025-03-18T08:39:21Z</time>
      </trkpt>
      <trkpt lat="48.70448" lon="1.96526">
        <ele>164.6</ele>
        <time>2025-03-18T08:39:31Z</time>
      </trkpt>
      <trkpt lat="48.70452" lon="1.96514">
        <ele>165.4</ele>
        <time>2025-03-18T08:39:40Z</time>
      </trkpt>
      <trkpt lat="48.70454" lon="1.96499">
        <ele>166</ele>
        <time>2025-03-18T08:39:51Z</time>
      </trkpt>
      <trkpt lat="48.70463" lon="1.96497">
        <ele>167</ele>
        <time>2025-03-18T08:40:01Z</time>
      </trkpt>
      <trkpt lat="48.70469" lon="1.96485">
        <ele>167.6</ele>
        <time>2025-03-18T08:40:23Z</time>
      </trkpt>
      <trkpt lat="48.70474" lon="1.96473">
        <ele>168.1</ele>
        <time>2025-03-18T08:40:32Z</time>
      </trkpt>
      <trkpt lat="48.7048" lon="1.96462">
        <ele>168.5</ele>
        <time>2025-03-18T08:40:40Z</time>
      </trkpt>
      <trkpt lat="48.70489" lon="1.96453">
        <ele>168.9</ele>
        <time>2025-03-18T08:40:48Z</time>
      </trkpt>
      <trkpt lat="48.70497" lon="1.96444">
        <ele>169</ele>
        <time>2025-03-18T08:40:55Z</time>
      </trkpt>
      <trkpt lat="48.70503" lon="1.96435">
        <ele>169</ele>
        <time>2025-03-18T08:41:02Z</time>
      </trkpt>
      <trkpt lat="48.70509" lon="1.96424">
        <ele>169</ele>
        <time>2025-03-18T08:41:09Z</time>
      </trkpt>
      <trkpt lat="48.70513" lon="1.96409">
        <ele>169</ele>
        <time>2025-03-18T08:41:16Z</time>
      </trkpt>
      <trkpt lat="48.70516" lon="1.96396">
        <ele>169</ele>
        <time>2025-03-18T08:41:23Z</time>
      </trkpt>
      <trkpt lat="48.70523" lon="1.96385">
        <ele>169</ele>
        <time>2025-03-18T08:41:29Z</time>
      </trkpt>
      <trkpt lat="48.70532" lon="1.96377">
        <ele>169</ele>
        <time>2025-03-18T08:41:36Z</time>
      </trkpt>
      <trkpt lat="48.70542" lon="1.96373">
        <ele>169</ele>
        <time>2025-03-18T08:41:44Z</time>
      </trkpt>
      <trkpt lat="48.70551" lon="1.96373">
        <ele>169</ele>
        <time>2025-03-18T08:41:59Z</time>
      </trkpt>
      <trkpt lat="48.70557" lon="1.96363">
        <ele>168.9</ele>
        <time>2025-03-18T08:42:17Z</time>
      </trkpt>
      <trkpt lat="48.70559" lon="1.9635">
        <ele>168.9</ele>
        <time>2025-03-18T08:42:27Z</time>
      </trkpt>
      <trkpt lat="48.70562" lon="1.96337">
        <ele>169</ele>
        <time>2025-03-18T08:42:37Z</time>
      </trkpt>
      <trkpt lat="48.70568" lon="1.96325">
        <ele>169</ele>
        <time>2025-03-18T08:42:51Z</time>
      </trkpt>
      <trkpt lat="48.70572" lon="1.96309">
        <ele>169</ele>
        <time>2025-03-18T08:42:58Z</time>
      </trkpt>
      <trkpt lat="48.70575" lon="1.96295">
        <ele>169.1</ele>
        <time>2025-03-18T08:43:05Z</time>
      </trkpt>
      <trkpt lat="48.70581" lon="1.96284">
        <ele>169.1</ele>
        <time>2025-03-18T08:43:14Z</time>
      </trkpt>
      <trkpt lat="48.70584" lon="1.9627">
        <ele>169.3</ele>
        <time>2025-03-18T08:43:21Z</time>
      </trkpt>
      <trkpt lat="48.70587" lon="1.96257">
        <ele>169.7</ele>
        <time>2025-03-18T08:43:28Z</time>
      </trkpt>
      <trkpt lat="48.70588" lon="1.96243">
        <ele>169.9</ele>
        <time>2025-03-18T08:43:35Z</time>
      </trkpt>
      <trkpt lat="48.70591" lon="1.96228">
        <ele>169.9</ele>
        <time>2025-03-18T08:43:43Z</time>
      </trkpt>
      <trkpt lat="48.70592" lon="1.96214">
        <ele>170</ele>
        <time>2025-03-18T08:43:50Z</time>
      </trkpt>
      <trkpt lat="48.70593" lon="1.96199">
        <ele>170</ele>
        <time>2025-03-18T08:43:57Z</time>
      </trkpt>
      <trkpt lat="48.70597" lon="1.96184">
        <ele>170.2</ele>
        <time>2025-03-18T08:44:04Z</time>
      </trkpt>
      <trkpt lat="48.70602" lon="1.96172">
        <ele>170.3</ele>
        <time>2025-03-18T08:44:11Z</time>
      </trkpt>
      <trkpt lat="48.7061" lon="1.96163">
        <ele>170.2</ele>
        <time>2025-03-18T08:44:19Z</time>
      </trkpt>
      <trkpt lat="48.70617" lon="1.96152">
        <ele>170.4</ele>
        <time>2025-03-18T08:44:27Z</time>
      </trkpt>
      <trkpt lat="48.70624" lon="1.96142">
        <ele>170.5</ele>
        <time>2025-03-18T08:44:35Z</time>
      </trkpt>
      <trkpt lat="48.70631" lon="1.9613">
        <ele>170.3</ele>
        <time>2025-03-18T08:44:42Z</time>
      </trkpt>
      <trkpt lat="48.70638" lon="1.96121">
        <ele>170</ele>
        <time>2025-03-18T08:44:49Z</time>
      </trkpt>
      <trkpt lat="48.70643" lon="1.96108">
        <ele>170.1</ele>
        <time>2025-03-18T08:45:14Z</time>
      </trkpt>
      <trkpt lat="48.70651" lon="1.961">
        <ele>170.2</ele>
        <time>2025-03-18T08:46:32Z</time>
      </trkpt>
      <trkpt lat="48.70658" lon="1.96091">
        <ele>170.2</ele>
        <time>2025-03-18T08:46:42Z</time>
      </trkpt>
      <trkpt lat="48.70666" lon="1.96083">
        <ele>170</ele>
        <time>2025-03-18T08:46:51Z</time>
      </trkpt>
      <trkpt lat="48.70674" lon="1.96074">
        <ele>169.8</ele>
        <time>2025-03-18T08:47:14Z</time>
      </trkpt>
      <trkpt lat="48.70681" lon="1.96064">
        <ele>169.8</ele>
        <time>2025-03-18T08:47:22Z</time>
      </trkpt>
      <trkpt lat="48.70689" lon="1.96056">
        <ele>170</ele>
        <time>2025-03-18T08:47:29Z</time>
      </trkpt>
      <trkpt lat="48.70697" lon="1.96047">
        <ele>169.9</ele>
        <time>2025-03-18T08:47:37Z</time>
      </trkpt>
      <trkpt lat="48.70703" lon="1.96036">
        <ele>169.7</ele>
        <time>2025-03-18T08:47:46Z</time>
      </trkpt>
      <trkpt lat="48.70711" lon="1.96029">
        <ele>169.4</ele>
        <time>2025-03-18T08:47:59Z</time>
      </trkpt>
      <trkpt lat="48.70717" lon="1.96018">
        <ele>169.5</ele>
        <time>2025-03-18T08:48:06Z</time>
      </trkpt>
      <trkpt lat="48.70721" lon="1.96005">
        <ele>169.8</ele>
        <time>2025-03-18T08:48:15Z</time>
      </trkpt>
      <trkpt lat="48.70726" lon="1.95994">
        <ele>169.8</ele>
        <time>2025-03-18T08:48:23Z</time>
      </trkpt>
      <trkpt lat="48.70732" lon="1.95982">
        <ele>169.6</ele>
        <time>2025-03-18T08:48:30Z</time>
      </trkpt>
      <trkpt lat="48.70737" lon="1.95971">
        <ele>169.5</ele>
        <time>2025-03-18T08:48:37Z</time>
      </trkpt>
      <trkpt lat="48.7074" lon="1.95958">
        <ele>169.3</ele>
        <time>2025-03-18T08:48:44Z</time>
      </trkpt>
      <trkpt lat="48.70731" lon="1.95952">
        <ele>169.7</ele>
        <time>2025-03-18T08:48:53Z</time>
      </trkpt>
      <trkpt lat="48.70723" lon="1.95945">
        <ele>170</ele>
        <time>2025-03-18T08:49:00Z</time>
      </trkpt>
      <trkpt lat="48.70716" lon="1.95936">
        <ele>170</ele>
        <time>2025-03-18T08:49:07Z</time>
      </trkpt>
      <trkpt lat="48.70709" lon="1.95926">
        <ele>170</ele>
        <time>2025-03-18T08:49:14Z</time>
      </trkpt>
      <trkpt lat="48.70703" lon="1.95914">
        <ele>170</ele>
        <time>2025-03-18T08:49:21Z</time>
      </trkpt>
      <trkpt lat="48.70695" lon="1.95904">
        <ele>170</ele>
        <time>2025-03-18T08:49:28Z</time>
      </trkpt>
      <trkpt lat="48.7069" lon="1.95892">
        <ele>170</ele>
        <time>2025-03-18T08:49:35Z</time>
      </trkpt>
      <trkpt lat="48.70686" lon="1.95879">
        <ele>170</ele>
        <time>2025-03-18T08:49:42Z</time>
      </trkpt>
      <trkpt lat="48.70682" lon="1.95865">
        <ele>170</ele>
        <time>2025-03-18T08:49:50Z</time>
      </trkpt>
      <trkpt lat="48.70676" lon="1.95853">
        <ele>170</ele>
        <time>2025-03-18T08:49:58Z</time>
      </trkpt>
      <trkpt lat="48.70672" lon="1.95841">
        <ele>170</ele>
        <time>2025-03-18T08:50:07Z</time>
      </trkpt>
      <trkpt lat="48.70667" lon="1.95828">
        <ele>170</ele>
        <time>2025-03-18T08:50:14Z</time>
      </trkpt>
      <trkpt lat="48.70661" lon="1.95817">
        <ele>170.2</ele>
        <time>2025-03-18T08:50:21Z</time>
      </trkpt>
      <trkpt lat="48.70654" lon="1.95804">
        <ele>170.5</ele>
        <time>2025-03-18T08:50:28Z</time>
      </trkpt>
      <trkpt lat="48.70647" lon="1.95795">
        <ele>170.8</ele>
        <time>2025-03-18T08:50:35Z</time>
      </trkpt>
      <trkpt lat="48.7064" lon="1.95786">
        <ele>171</ele>
        <time>2025-03-18T08:50:42Z</time>
      </trkpt>
      <trkpt lat="48.70631" lon="1.95778">
        <ele>171</ele>
        <time>2025-03-18T08:50:49Z</time>
      </trkpt>
      <trkpt lat="48.70622" lon="1.95773">
        <ele>171</ele>
        <time>2025-03-18T08:50:56Z</time>
      </trkpt>
      <trkpt lat="48.70614" lon="1.95769">
        <ele>171</ele>
        <time>2025-03-18T08:51:03Z</time>
      </trkpt>
      <trkpt lat="48.70605" lon="1.95765">
        <ele>171.2</ele>
        <time>2025-03-18T08:51:10Z</time>
      </trkpt>
      <trkpt lat="48.70596" lon="1.95758">
        <ele>171.6</ele>
        <time>2025-03-18T08:51:18Z</time>
      </trkpt>
      <trkpt lat="48.70587" lon="1.95754">
        <ele>171.9</ele>
        <time>2025-03-18T08:51:26Z</time>
      </trkpt>
      <trkpt lat="48.70578" lon="1.95751">
        <ele>171.8</ele>
        <time>2025-03-18T08:51:34Z</time>
      </trkpt>
      <trkpt lat="48.70568" lon="1.95752">
        <ele>171.4</ele>
        <time>2025-03-18T08:52:25Z</time>
      </trkpt>
      <trkpt lat="48.70558" lon="1.95748">
        <ele>171</ele>
        <time>2025-03-18T08:52:32Z</time>
      </trkpt>
      <trkpt lat="48.70548" lon="1.95744">
        <ele>170.1</ele>
        <time>2025-03-18T08:52:39Z</time>
      </trkpt>
      <trkpt lat="48.70538" lon="1.9574">
        <ele>169</ele>
        <time>2025-03-18T08:52:46Z</time>
      </trkpt>
      <trkpt lat="48.70529" lon="1.95737">
        <ele>168.1</ele>
        <time>2025-03-18T08:52:53Z</time>
      </trkpt>
      <trkpt lat="48.70519" lon="1.95733">
        <ele>166.5</ele>
        <time>2025-03-18T08:53:00Z</time>
      </trkpt>
      <trkpt lat="48.70509" lon="1.95729">
        <ele>164.8</ele>
        <time>2025-03-18T08:53:07Z</time>
      </trkpt>
      <trkpt lat="48.705" lon="1.95734">
        <ele>163.4</ele>
        <time>2025-03-18T08:53:15Z</time>
      </trkpt>
      <trkpt lat="48.70495" lon="1.95747">
        <ele>162.2</ele>
        <time>2025-03-18T08:53:21Z</time>
      </trkpt>
      <trkpt lat="48.70487" lon="1.9574">
        <ele>159.5</ele>
        <time>2025-03-18T08:53:28Z</time>
      </trkpt>
      <trkpt lat="48.70483" lon="1.95728">
        <ele>158.1</ele>
        <time>2025-03-18T08:53:34Z</time>
      </trkpt>
      <trkpt lat="48.70474" lon="1.95734">
        <ele>155.6</ele>
        <time>2025-03-18T08:53:43Z</time>
      </trkpt>
      <trkpt lat="48.70465" lon="1.9573">
        <ele>152.9</ele>
        <time>2025-03-18T08:53:54Z</time>
      </trkpt>
      <trkpt lat="48.70456" lon="1.95726">
        <ele>150.2</ele>
        <time>2025-03-18T08:54:04Z</time>
      </trkpt>
      <trkpt lat="48.70453" lon="1.95711">
        <ele>149.5</ele>
        <time>2025-03-18T08:54:12Z</time>
      </trkpt>
      <trkpt lat="48.70444" lon="1.9571">
        <ele>147</ele>
        <time>2025-03-18T08:54:26Z</time>
      </trkpt>
      <trkpt lat="48.70436" lon="1.95705">
        <ele>145.9</ele>
        <time>2025-03-18T08:54:38Z</time>
      </trkpt>
      <trkpt lat="48.70427" lon="1.95701">
        <ele>145</ele>
        <time>2025-03-18T08:54:47Z</time>
      </trkpt>
      <trkpt lat="48.70418" lon="1.95699">
        <ele>143.9</ele>
        <time>2025-03-18T08:54:58Z</time>
      </trkpt>
      <trkpt lat="48.70408" lon="1.95699">
        <ele>143.8</ele>
        <time>2025-03-18T08:55:09Z</time>
      </trkpt>
      <trkpt lat="48.70399" lon="1.95694">
        <ele>144</ele>
        <time>2025-03-18T08:55:19Z</time>
      </trkpt>
      <trkpt lat="48.7039" lon="1.9569">
        <ele>144</ele>
        <time>2025-03-18T08:55:28Z</time>
      </trkpt>
      <trkpt lat="48.70381" lon="1.95687">
        <ele>145.2</ele>
        <time>2025-03-18T08:55:37Z</time>
      </trkpt>
      <trkpt lat="48.70374" lon="1.95676">
        <ele>146.5</ele>
        <time>2025-03-18T08:58:41Z</time>
      </trkpt>
      <trkpt lat="48.70371" lon="1.95661">
        <ele>147.2</ele>
        <time>2025-03-18T08:58:50Z</time>
      </trkpt>
      <trkpt lat="48.70367" lon="1.95649">
        <ele>148</ele>
        <time>2025-03-18T08:58:58Z</time>
      </trkpt>
      <trkpt lat="48.70364" lon="1.95634">
        <ele>148.5</ele>
        <time>2025-03-18T08:59:03Z</time>
      </trkpt>
      <trkpt lat="48.70361" lon="1.95619">
        <ele>148.3</ele>
        <time>2025-03-18T08:59:11Z</time>
      </trkpt>
      <trkpt lat="48.70357" lon="1.95607">
        <ele>148.9</ele>
        <time>2025-03-18T08:59:19Z</time>
      </trkpt>
      <trkpt lat="48.70352" lon="1.95594">
        <ele>149.7</ele>
        <time>2025-03-18T08:59:26Z</time>
      </trkpt>
      <trkpt lat="48.70348" lon="1.9558">
        <ele>150.3</ele>
        <time>2025-03-18T08:59:33Z</time>
      </trkpt>
      <trkpt lat="48.70343" lon="1.95566">
        <ele>150.5</ele>
        <time>2025-03-18T08:59:40Z</time>
      </trkpt>
      <trkpt lat="48.70338" lon="1.95554">
        <ele>150.4</ele>
        <time>2025-03-18T08:59:46Z</time>
      </trkpt>
      <trkpt lat="48.70333" lon="1.95542">
        <ele>150.5</ele>
        <time>2025-03-18T08:59:52Z</time>
      </trkpt>
      <trkpt lat="48.70328" lon="1.95528">
        <ele>150.8</ele>
        <time>2025-03-18T08:59:59Z</time>
      </trkpt>
      <trkpt lat="48.70323" lon="1.95514">
        <ele>151.6</ele>
        <time>2025-03-18T09:00:06Z</time>
      </trkpt>
      <trkpt lat="48.70318" lon="1.955">
        <ele>152.2</ele>
        <time>2025-03-18T09:00:13Z</time>
      </trkpt>
      <trkpt lat="48.70314" lon="1.95487">
        <ele>152.6</ele>
        <time>2025-03-18T09:00:20Z</time>
      </trkpt>
      <trkpt lat="48.70309" lon="1.95474">
        <ele>152.8</ele>
        <time>2025-03-18T09:00:27Z</time>
      </trkpt>
      <trkpt lat="48.70305" lon="1.95461">
        <ele>153.2</ele>
        <time>2025-03-18T09:00:34Z</time>
      </trkpt>
      <trkpt lat="48.703" lon="1.95447">
        <ele>153.9</ele>
        <time>2025-03-18T09:00:41Z</time>
      </trkpt>
      <trkpt lat="48.70295" lon="1.95434">
        <ele>154.6</ele>
        <time>2025-03-18T09:00:48Z</time>
      </trkpt>
      <trkpt lat="48.7029" lon="1.95421">
        <ele>155.3</ele>
        <time>2025-03-18T09:00:55Z</time>
      </trkpt>
      <trkpt lat="48.70284" lon="1.95409">
        <ele>156</ele>
        <time>2025-03-18T09:01:02Z</time>
      </trkpt>
      <trkpt lat="48.7028" lon="1.95397">
        <ele>156.2</ele>
        <time>2025-03-18T09:01:09Z</time>
      </trkpt>
      <trkpt lat="48.70273" lon="1.95386">
        <ele>156.5</ele>
        <time>2025-03-18T09:01:17Z</time>
      </trkpt>
      <trkpt lat="48.70269" lon="1.95399">
        <ele>157.3</ele>
        <time>2025-03-18T09:01:25Z</time>
      </trkpt>
      <trkpt lat="48.70267" lon="1.95413">
        <ele>158.1</ele>
        <time>2025-03-18T09:01:32Z</time>
      </trkpt>
      <trkpt lat="48.70264" lon="1.95427">
        <ele>158.6</ele>
        <time>2025-03-18T09:01:39Z</time>
      </trkpt>
      <trkpt lat="48.7026" lon="1.9544">
        <ele>159.4</ele>
        <time>2025-03-18T09:01:46Z</time>
      </trkpt>
      <trkpt lat="48.70256" lon="1.95453">
        <ele>160.2</ele>
        <time>2025-03-18T09:01:53Z</time>
      </trkpt>
      <trkpt lat="48.7025" lon="1.95465">
        <ele>161</ele>
        <time>2025-03-18T09:02:00Z</time>
      </trkpt>
      <trkpt lat="48.70244" lon="1.95477">
        <ele>161.8</ele>
        <time>2025-03-18T09:02:07Z</time>
      </trkpt>
      <trkpt lat="48.70239" lon="1.95489">
        <ele>162.6</ele>
        <time>2025-03-18T09:02:14Z</time>
      </trkpt>
      <trkpt lat="48.70234" lon="1.95501">
        <ele>163.2</ele>
        <time>2025-03-18T09:02:21Z</time>
      </trkpt>
      <trkpt lat="48.70229" lon="1.95513">
        <ele>163.5</ele>
        <time>2025-03-18T09:02:28Z</time>
      </trkpt>
      <trkpt lat="48.70224" lon="1.95525">
        <ele>163.9</ele>
        <time>2025-03-18T09:02:35Z</time>
      </trkpt>
      <trkpt lat="48.70219" lon="1.95537">
        <ele>164.2</ele>
        <time>2025-03-18T09:02:42Z</time>
      </trkpt>
      <trkpt lat="48.70213" lon="1.95549">
        <ele>164.4</ele>
        <time>2025-03-18T09:02:49Z</time>
      </trkpt>
      <trkpt lat="48.70208" lon="1.95562">
        <ele>164.4</ele>
        <time>2025-03-18T09:02:56Z</time>
      </trkpt>
      <trkpt lat="48.70202" lon="1.95574">
        <ele>164.5</ele>
        <time>2025-03-18T09:03:03Z</time>
      </trkpt>
      <trkpt lat="48.70196" lon="1.95586">
        <ele>164.8</ele>
        <time>2025-03-18T09:03:10Z</time>
      </trkpt>
      <trkpt lat="48.70191" lon="1.956">
        <ele>164.6</ele>
        <time>2025-03-18T09:03:17Z</time>
      </trkpt>
      <trkpt lat="48.70185" lon="1.95612">
        <ele>164.7</ele>
        <time>2025-03-18T09:03:24Z</time>
      </trkpt>
      <trkpt lat="48.70179" lon="1.95625">
        <ele>164.8</ele>
        <time>2025-03-18T09:03:31Z</time>
      </trkpt>
      <trkpt lat="48.70174" lon="1.95638">
        <ele>164.8</ele>
        <time>2025-03-18T09:03:38Z</time>
      </trkpt>
      <trkpt lat="48.70168" lon="1.95651">
        <ele>164.9</ele>
        <time>2025-03-18T09:03:45Z</time>
      </trkpt>
      <trkpt lat="48.70162" lon="1.95664">
        <ele>165.2</ele>
        <time>2025-03-18T09:03:52Z</time>
      </trkpt>
      <trkpt lat="48.70157" lon="1.95675">
        <ele>165.2</ele>
        <time>2025-03-18T09:03:58Z</time>
      </trkpt>
      <trkpt lat="48.70152" lon="1.95686">
        <ele>165.2</ele>
        <time>2025-03-18T09:04:04Z</time>
      </trkpt>
      <trkpt lat="48.70146" lon="1.957">
        <ele>165.3</ele>
        <time>2025-03-18T09:04:11Z</time>
      </trkpt>
      <trkpt lat="48.70141" lon="1.95711">
        <ele>165.3</ele>
        <time>2025-03-18T09:04:17Z</time>
      </trkpt>
      <trkpt lat="48.70136" lon="1.95723">
        <ele>165.1</ele>
        <time>2025-03-18T09:04:23Z</time>
      </trkpt>
      <trkpt lat="48.70131" lon="1.95734">
        <ele>165</ele>
        <time>2025-03-18T09:04:29Z</time>
      </trkpt>
      <trkpt lat="48.70125" lon="1.95746">
        <ele>165.1</ele>
        <time>2025-03-18T09:04:35Z</time>
      </trkpt>
      <trkpt lat="48.7012" lon="1.95757">
        <ele>165.2</ele>
        <time>2025-03-18T09:04:41Z</time>
      </trkpt>
      <trkpt lat="48.70116" lon="1.95769">
        <ele>165.1</ele>
        <time>2025-03-18T09:04:47Z</time>
      </trkpt>
      <trkpt lat="48.70109" lon="1.95781">
        <ele>164.9</ele>
        <time>2025-03-18T09:04:54Z</time>
      </trkpt>
      <trkpt lat="48.70104" lon="1.95794">
        <ele>164.7</ele>
        <time>2025-03-18T09:05:01Z</time>
      </trkpt>
      <trkpt lat="48.70098" lon="1.95807">
        <ele>164.4</ele>
        <time>2025-03-18T09:05:08Z</time>
      </trkpt>
      <trkpt lat="48.70093" lon="1.9582">
        <ele>164.5</ele>
        <time>2025-03-18T09:05:15Z</time>
      </trkpt>
      <trkpt lat="48.70088" lon="1.95832">
        <ele>164.7</ele>
        <time>2025-03-18T09:05:22Z</time>
      </trkpt>
      <trkpt lat="48.70083" lon="1.95844">
        <ele>164.6</ele>
        <time>2025-03-18T09:05:29Z</time>
      </trkpt>
      <trkpt lat="48.70077" lon="1.95857">
        <ele>164.6</ele>
        <time>2025-03-18T09:05:36Z</time>
      </trkpt>
      <trkpt lat="48.70071" lon="1.95868">
        <ele>164.8</ele>
        <time>2025-03-18T09:05:43Z</time>
      </trkpt>
      <trkpt lat="48.70066" lon="1.9588">
        <ele>165</ele>
        <time>2025-03-18T09:05:49Z</time>
      </trkpt>
      <trkpt lat="48.7006" lon="1.95893">
        <ele>165.4</ele>
        <time>2025-03-18T09:05:56Z</time>
      </trkpt>
      <trkpt lat="48.70055" lon="1.95904">
        <ele>165.5</ele>
        <time>2025-03-18T09:06:02Z</time>
      </trkpt>
      <trkpt lat="48.7005" lon="1.95918">
        <ele>165.2</ele>
        <time>2025-03-18T09:06:09Z</time>
      </trkpt>
      <trkpt lat="48.70044" lon="1.95931">
        <ele>165.1</ele>
        <time>2025-03-18T09:06:16Z</time>
      </trkpt>
      <trkpt lat="48.70038" lon="1.95942">
        <ele>165.3</ele>
        <time>2025-03-18T09:06:22Z</time>
      </trkpt>
      <trkpt lat="48.70032" lon="1.95955">
        <ele>165.3</ele>
        <time>2025-03-18T09:06:29Z</time>
      </trkpt>
      <trkpt lat="48.70026" lon="1.95967">
        <ele>165.3</ele>
        <time>2025-03-18T09:06:37Z</time>
      </trkpt>
      <trkpt lat="48.70021" lon="1.9598">
        <ele>165.5</ele>
        <time>2025-03-18T09:06:44Z</time>
      </trkpt>
      <trkpt lat="48.70015" lon="1.95993">
        <ele>165.9</ele>
        <time>2025-03-18T09:06:51Z</time>
      </trkpt>
      <trkpt lat="48.7001" lon="1.96004">
        <ele>166.1</ele>
        <time>2025-03-18T09:06:57Z</time>
      </trkpt>
      <trkpt lat="48.70005" lon="1.96016">
        <ele>166</ele>
        <time>2025-03-18T09:07:03Z</time>
      </trkpt>
      <trkpt lat="48.69999" lon="1.96028">
        <ele>166</ele>
        <time>2025-03-18T09:07:10Z</time>
      </trkpt>
      <trkpt lat="48.69993" lon="1.96041">
        <ele>166.2</ele>
        <time>2025-03-18T09:07:17Z</time>
      </trkpt>
      <trkpt lat="48.69987" lon="1.96053">
        <ele>166.5</ele>
        <time>2025-03-18T09:07:24Z</time>
      </trkpt>
      <trkpt lat="48.69982" lon="1.96065">
        <ele>166.5</ele>
        <time>2025-03-18T09:07:31Z</time>
      </trkpt>
      <trkpt lat="48.69977" lon="1.96077">
        <ele>166.7</ele>
        <time>2025-03-18T09:07:38Z</time>
      </trkpt>
      <trkpt lat="48.69971" lon="1.9609">
        <ele>167</ele>
        <time>2025-03-18T09:07:45Z</time>
      </trkpt>
      <trkpt lat="48.69966" lon="1.96103">
        <ele>167.2</ele>
        <time>2025-03-18T09:07:52Z</time>
      </trkpt>
      <trkpt lat="48.69961" lon="1.96114">
        <ele>167.3</ele>
        <time>2025-03-18T09:07:59Z</time>
      </trkpt>
      <trkpt lat="48.69955" lon="1.96126">
        <ele>167.4</ele>
        <time>2025-03-18T09:08:06Z</time>
      </trkpt>
      <trkpt lat="48.69949" lon="1.96139">
        <ele>167.7</ele>
        <time>2025-03-18T09:08:13Z</time>
      </trkpt>
      <trkpt lat="48.69944" lon="1.96152">
        <ele>168</ele>
        <time>2025-03-18T09:08:20Z</time>
      </trkpt>
      <trkpt lat="48.69938" lon="1.96162">
        <ele>168.2</ele>
        <time>2025-03-18T09:08:28Z</time>
      </trkpt>
      <trkpt lat="48.69933" lon="1.96174">
        <ele>168.3</ele>
        <time>2025-03-18T09:08:35Z</time>
      </trkpt>
      <trkpt lat="48.69927" lon="1.96187">
        <ele>168.3</ele>
        <time>2025-03-18T09:08:42Z</time>
      </trkpt>
      <trkpt lat="48.69921" lon="1.962">
        <ele>168.5</ele>
        <time>2025-03-18T09:08:49Z</time>
      </trkpt>
      <trkpt lat="48.69916" lon="1.96212">
        <ele>168.4</ele>
        <time>2025-03-18T09:08:56Z</time>
      </trkpt>
      <trkpt lat="48.69911" lon="1.96225">
        <ele>168.2</ele>
        <time>2025-03-18T09:09:03Z</time>
      </trkpt>
      <trkpt lat="48.69905" lon="1.96238">
        <ele>168.4</ele>
        <time>2025-03-18T09:09:10Z</time>
      </trkpt>
      <trkpt lat="48.699" lon="1.96251">
        <ele>168.6</ele>
        <time>2025-03-18T09:09:17Z</time>
      </trkpt>
      <trkpt lat="48.69894" lon="1.96264">
        <ele>168.8</ele>
        <time>2025-03-18T09:09:24Z</time>
      </trkpt>
      <trkpt lat="48.69888" lon="1.96276">
        <ele>169</ele>
        <time>2025-03-18T09:09:31Z</time>
      </trkpt>
      <trkpt lat="48.69883" lon="1.96289">
        <ele>169.2</ele>
        <time>2025-03-18T09:09:38Z</time>
      </trkpt>
      <trkpt lat="48.69877" lon="1.96301">
        <ele>169.4</ele>
        <time>2025-03-18T09:09:45Z</time>
      </trkpt>
      <trkpt lat="48.69871" lon="1.96315">
        <ele>169.3</ele>
        <time>2025-03-18T09:09:52Z</time>
      </trkpt>
      <trkpt lat="48.69866" lon="1.96327">
        <ele>169</ele>
        <time>2025-03-18T09:09:59Z</time>
      </trkpt>
      <trkpt lat="48.69861" lon="1.96341">
        <ele>168.8</ele>
        <time>2025-03-18T09:10:06Z</time>
      </trkpt>
      <trkpt lat="48.69855" lon="1.96353">
        <ele>168.7</ele>
        <time>2025-03-18T09:10:13Z</time>
      </trkpt>
      <trkpt lat="48.6985" lon="1.96364">
        <ele>168.8</ele>
        <time>2025-03-18T09:10:19Z</time>
      </trkpt>
      <trkpt lat="48.69844" lon="1.96376">
        <ele>168.9</ele>
        <time>2025-03-18T09:10:26Z</time>
      </trkpt>
      <trkpt lat="48.69837" lon="1.96387">
        <ele>168.9</ele>
        <time>2025-03-18T09:10:33Z</time>
      </trkpt>
      <trkpt lat="48.69832" lon="1.964">
        <ele>169</ele>
        <time>2025-03-18T09:10:40Z</time>
      </trkpt>
      <trkpt lat="48.69827" lon="1.96413">
        <ele>169.2</ele>
        <time>2025-03-18T09:10:47Z</time>
      </trkpt>
      <trkpt lat="48.69823" lon="1.96425">
        <ele>169.3</ele>
        <time>2025-03-18T09:10:53Z</time>
      </trkpt>
      <trkpt lat="48.69817" lon="1.96437">
        <ele>169.2</ele>
        <time>2025-03-18T09:11:00Z</time>
      </trkpt>
      <trkpt lat="48.69811" lon="1.96449">
        <ele>169</ele>
        <time>2025-03-18T09:11:07Z</time>
      </trkpt>
      <trkpt lat="48.69806" lon="1.96461">
        <ele>169</ele>
        <time>2025-03-18T09:11:14Z</time>
      </trkpt>
      <trkpt lat="48.698" lon="1.96474">
        <ele>169.2</ele>
        <time>2025-03-18T09:11:21Z</time>
      </trkpt>
      <trkpt lat="48.69795" lon="1.96485">
        <ele>169.2</ele>
        <time>2025-03-18T09:11:28Z</time>
      </trkpt>
      <trkpt lat="48.6979" lon="1.96497">
        <ele>169.1</ele>
        <time>2025-03-18T09:11:35Z</time>
      </trkpt>
      <trkpt lat="48.69785" lon="1.9651">
        <ele>168.9</ele>
        <time>2025-03-18T09:11:45Z</time>
      </trkpt>
      <trkpt lat="48.69781" lon="1.96523">
        <ele>168.9</ele>
        <time>2025-03-18T09:11:56Z</time>
      </trkpt>
      <trkpt lat="48.69772" lon="1.96522">
        <ele>169.2</ele>
        <time>2025-03-18T09:12:19Z</time>
      </trkpt>
      <trkpt lat="48.69763" lon="1.96515">
        <ele>169.5</ele>
        <time>2025-03-18T09:14:54Z</time>
      </trkpt>
      <trkpt lat="48.69756" lon="1.96505">
        <ele>169.8</ele>
        <time>2025-03-18T09:15:00Z</time>
      </trkpt>
      <trkpt lat="48.69752" lon="1.96491">
        <ele>170.3</ele>
        <time>2025-03-18T09:15:07Z</time>
      </trkpt>
      <trkpt lat="48.69747" lon="1.96479">
        <ele>170.8</ele>
        <time>2025-03-18T09:15:13Z</time>
      </trkpt>
      <trkpt lat="48.69743" lon="1.96465">
        <ele>171</ele>
        <time>2025-03-18T09:15:19Z</time>
      </trkpt>
      <trkpt lat="48.69738" lon="1.96453">
        <ele>171</ele>
        <time>2025-03-18T09:15:25Z</time>
      </trkpt>
      <trkpt lat="48.69733" lon="1.96442">
        <ele>171</ele>
        <time>2025-03-18T09:15:31Z</time>
      </trkpt>
      <trkpt lat="48.69728" lon="1.9643">
        <ele>171</ele>
        <time>2025-03-18T09:15:37Z</time>
      </trkpt>
      <trkpt lat="48.69723" lon="1.96418">
        <ele>171</ele>
        <time>2025-03-18T09:15:43Z</time>
      </trkpt>
      <trkpt lat="48.69717" lon="1.96406">
        <ele>171</ele>
        <time>2025-03-18T09:15:49Z</time>
      </trkpt>
      <trkpt lat="48.69712" lon="1.96393">
        <ele>171</ele>
        <time>2025-03-18T09:15:55Z</time>
      </trkpt>
      <trkpt lat="48.69707" lon="1.9638">
        <ele>171.3</ele>
        <time>2025-03-18T09:16:01Z</time>
      </trkpt>
      <trkpt lat="48.69702" lon="1.96368">
        <ele>171.8</ele>
        <time>2025-03-18T09:16:07Z</time>
      </trkpt>
      <trkpt lat="48.69696" lon="1.96355">
        <ele>172</ele>
        <time>2025-03-18T09:16:14Z</time>
      </trkpt>
      <trkpt lat="48.69691" lon="1.96343">
        <ele>172</ele>
        <time>2025-03-18T09:16:20Z</time>
      </trkpt>
      <trkpt lat="48.69686" lon="1.9633">
        <ele>172</ele>
        <time>2025-03-18T09:16:26Z</time>
      </trkpt>
      <trkpt lat="48.69681" lon="1.96319">
        <ele>172</ele>
        <time>2025-03-18T09:16:32Z</time>
      </trkpt>
      <trkpt lat="48.69676" lon="1.96306">
        <ele>172</ele>
        <time>2025-03-18T09:16:39Z</time>
      </trkpt>
      <trkpt lat="48.6967" lon="1.96294">
        <ele>172</ele>
        <time>2025-03-18T09:16:45Z</time>
      </trkpt>
      <trkpt lat="48.69665" lon="1.96283">
        <ele>172</ele>
        <time>2025-03-18T09:16:51Z</time>
      </trkpt>
      <trkpt lat="48.6966" lon="1.96271">
        <ele>172</ele>
        <time>2025-03-18T09:16:57Z</time>
      </trkpt>
      <trkpt lat="48.69655" lon="1.96259">
        <ele>172</ele>
        <time>2025-03-18T09:17:04Z</time>
      </trkpt>
      <trkpt lat="48.6965" lon="1.96245">
        <ele>172</ele>
        <time>2025-03-18T09:17:11Z</time>
      </trkpt>
      <trkpt lat="48.69644" lon="1.96234">
        <ele>172</ele>
        <time>2025-03-18T09:17:17Z</time>
      </trkpt>
      <trkpt lat="48.69639" lon="1.96223">
        <ele>172</ele>
        <time>2025-03-18T09:17:23Z</time>
      </trkpt>
      <trkpt lat="48.69634" lon="1.96211">
        <ele>172</ele>
        <time>2025-03-18T09:17:29Z</time>
      </trkpt>
      <trkpt lat="48.6963" lon="1.96198">
        <ele>172</ele>
        <time>2025-03-18T09:17:35Z</time>
      </trkpt>
      <trkpt lat="48.69625" lon="1.96186">
        <ele>172</ele>
        <time>2025-03-18T09:17:41Z</time>
      </trkpt>
      <trkpt lat="48.6962" lon="1.96174">
        <ele>172</ele>
        <time>2025-03-18T09:17:47Z</time>
      </trkpt>
      <trkpt lat="48.69615" lon="1.96162">
        <ele>172</ele>
        <time>2025-03-18T09:17:54Z</time>
      </trkpt>
      <trkpt lat="48.69609" lon="1.96149">
        <ele>172</ele>
        <time>2025-03-18T09:18:01Z</time>
      </trkpt>
      <trkpt lat="48.69603" lon="1.96137">
        <ele>172</ele>
        <time>2025-03-18T09:18:09Z</time>
      </trkpt>
      <trkpt lat="48.69598" lon="1.96124">
        <ele>172</ele>
        <time>2025-03-18T09:18:16Z</time>
      </trkpt>
      <trkpt lat="48.69593" lon="1.96111">
        <ele>172</ele>
        <time>2025-03-18T09:18:22Z</time>
      </trkpt>
      <trkpt lat="48.69588" lon="1.96099">
        <ele>172</ele>
        <time>2025-03-18T09:18:28Z</time>
      </trkpt>
      <trkpt lat="48.69583" lon="1.96087">
        <ele>172</ele>
        <time>2025-03-18T09:18:34Z</time>
      </trkpt>
      <trkpt lat="48.69577" lon="1.96074">
        <ele>172</ele>
        <time>2025-03-18T09:18:41Z</time>
      </trkpt>
      <trkpt lat="48.69572" lon="1.96061">
        <ele>172</ele>
        <time>2025-03-18T09:18:49Z</time>
      </trkpt>
      <trkpt lat="48.69567" lon="1.96049">
        <ele>172</ele>
        <time>2025-03-18T09:18:55Z</time>
      </trkpt>
      <trkpt lat="48.69562" lon="1.96036">
        <ele>172</ele>
        <time>2025-03-18T09:19:01Z</time>
      </trkpt>
      <trkpt lat="48.69556" lon="1.96026">
        <ele>172</ele>
        <time>2025-03-18T09:19:07Z</time>
      </trkpt>
      <trkpt lat="48.69551" lon="1.96013">
        <ele>171.8</ele>
        <time>2025-03-18T09:19:13Z</time>
      </trkpt>
      <trkpt lat="48.69546" lon="1.96">
        <ele>171.7</ele>
        <time>2025-03-18T09:19:19Z</time>
      </trkpt>
      <trkpt lat="48.69541" lon="1.95987">
        <ele>171.3</ele>
        <time>2025-03-18T09:19:26Z</time>
      </trkpt>
      <trkpt lat="48.69536" lon="1.95976">
        <ele>171</ele>
        <time>2025-03-18T09:19:32Z</time>
      </trkpt>
      <trkpt lat="48.69531" lon="1.95964">
        <ele>170.8</ele>
        <time>2025-03-18T09:19:38Z</time>
      </trkpt>
      <trkpt lat="48.69526" lon="1.95952">
        <ele>170.2</ele>
        <time>2025-03-18T09:19:44Z</time>
      </trkpt>
      <trkpt lat="48.69522" lon="1.95939">
        <ele>169.7</ele>
        <time>2025-03-18T09:19:50Z</time>
      </trkpt>
      <trkpt lat="48.69516" lon="1.95927">
        <ele>169.3</ele>
        <time>2025-03-18T09:19:57Z</time>
      </trkpt>
      <trkpt lat="48.6951" lon="1.95916">
        <ele>168.7</ele>
        <time>2025-03-18T09:20:03Z</time>
      </trkpt>
      <trkpt lat="48.69506" lon="1.95902">
        <ele>168.4</ele>
        <time>2025-03-18T09:20:10Z</time>
      </trkpt>
      <trkpt lat="48.69501" lon="1.9589">
        <ele>168.1</ele>
        <time>2025-03-18T09:20:16Z</time>
      </trkpt>
      <trkpt lat="48.69497" lon="1.95878">
        <ele>167.6</ele>
        <time>2025-03-18T09:20:22Z</time>
      </trkpt>
      <trkpt lat="48.69492" lon="1.95864">
        <ele>167.1</ele>
        <time>2025-03-18T09:20:29Z</time>
      </trkpt>
      <trkpt lat="48.69486" lon="1.95852">
        <ele>166.7</ele>
        <time>2025-03-18T09:20:36Z</time>
      </trkpt>
      <trkpt lat="48.69481" lon="1.95839">
        <ele>166.5</ele>
        <time>2025-03-18T09:20:43Z</time>
      </trkpt>
      <trkpt lat="48.69477" lon="1.95826">
        <ele>166.6</ele>
        <time>2025-03-18T09:20:50Z</time>
      </trkpt>
      <trkpt lat="48.69471" lon="1.95815">
        <ele>166.6</ele>
        <time>2025-03-18T09:20:58Z</time>
      </trkpt>
      <trkpt lat="48.69467" lon="1.95803">
        <ele>166.9</ele>
        <time>2025-03-18T09:21:05Z</time>
      </trkpt>
      <trkpt lat="48.69461" lon="1.95792">
        <ele>167.1</ele>
        <time>2025-03-18T09:21:12Z</time>
      </trkpt>
      <trkpt lat="48.69455" lon="1.95779">
        <ele>167.3</ele>
        <time>2025-03-18T09:21:19Z</time>
      </trkpt>
      <trkpt lat="48.6945" lon="1.95768">
        <ele>167.9</ele>
        <time>2025-03-18T09:21:26Z</time>
      </trkpt>
      <trkpt lat="48.69445" lon="1.95756">
        <ele>168.6</ele>
        <time>2025-03-18T09:21:33Z</time>
      </trkpt>
      <trkpt lat="48.6944" lon="1.95744">
        <ele>169.2</ele>
        <time>2025-03-18T09:21:40Z</time>
      </trkpt>
      <trkpt lat="48.69434" lon="1.95732">
        <ele>169.7</ele>
        <time>2025-03-18T09:21:47Z</time>
      </trkpt>
      <trkpt lat="48.69429" lon="1.95719">
        <ele>170</ele>
        <time>2025-03-18T09:21:54Z</time>
      </trkpt>
      <trkpt lat="48.69423" lon="1.95707">
        <ele>170</ele>
        <time>2025-03-18T09:22:01Z</time>
      </trkpt>
      <trkpt lat="48.69418" lon="1.95694">
        <ele>170</ele>
        <time>2025-03-18T09:22:08Z</time>
      </trkpt>
      <trkpt lat="48.69412" lon="1.95681">
        <ele>170.6</ele>
        <time>2025-03-18T09:22:15Z</time>
      </trkpt>
      <trkpt lat="48.69407" lon="1.95669">
        <ele>171</ele>
        <time>2025-03-18T09:22:22Z</time>
      </trkpt>
      <trkpt lat="48.69401" lon="1.95655">
        <ele>171</ele>
        <time>2025-03-18T09:22:29Z</time>
      </trkpt>
      <trkpt lat="48.69396" lon="1.95643">
        <ele>171</ele>
        <time>2025-03-18T09:22:36Z</time>
      </trkpt>
      <trkpt lat="48.6939" lon="1.95629">
        <ele>171</ele>
        <time>2025-03-18T09:22:43Z</time>
      </trkpt>
      <trkpt lat="48.69385" lon="1.95617">
        <ele>171.1</ele>
        <time>2025-03-18T09:22:50Z</time>
      </trkpt>
      <trkpt lat="48.6938" lon="1.95604">
        <ele>171.5</ele>
        <time>2025-03-18T09:22:57Z</time>
      </trkpt>
      <trkpt lat="48.69374" lon="1.95591">
        <ele>171.9</ele>
        <time>2025-03-18T09:23:04Z</time>
      </trkpt>
      <trkpt lat="48.69368" lon="1.95578">
        <ele>172</ele>
        <time>2025-03-18T09:23:11Z</time>
      </trkpt>
      <trkpt lat="48.69363" lon="1.95565">
        <ele>172</ele>
        <time>2025-03-18T09:23:18Z</time>
      </trkpt>
      <trkpt lat="48.69357" lon="1.95553">
        <ele>172.2</ele>
        <time>2025-03-18T09:23:25Z</time>
      </trkpt>
      <trkpt lat="48.69352" lon="1.9554">
        <ele>172.3</ele>
        <time>2025-03-18T09:23:32Z</time>
      </trkpt>
      <trkpt lat="48.69348" lon="1.95526">
        <ele>172.5</ele>
        <time>2025-03-18T09:23:39Z</time>
      </trkpt>
      <trkpt lat="48.69341" lon="1.95514">
        <ele>172.7</ele>
        <time>2025-03-18T09:23:46Z</time>
      </trkpt>
      <trkpt lat="48.69336" lon="1.95501">
        <ele>172.9</ele>
        <time>2025-03-18T09:23:53Z</time>
      </trkpt>
      <trkpt lat="48.69331" lon="1.95489">
        <ele>173</ele>
        <time>2025-03-18T09:24:00Z</time>
      </trkpt>
      <trkpt lat="48.69326" lon="1.95476">
        <ele>173</ele>
        <time>2025-03-18T09:24:07Z</time>
      </trkpt>
      <trkpt lat="48.6932" lon="1.95463">
        <ele>173</ele>
        <time>2025-03-18T09:24:14Z</time>
      </trkpt>
      <trkpt lat="48.69315" lon="1.95451">
        <ele>173</ele>
        <time>2025-03-18T09:24:21Z</time>
      </trkpt>
      <trkpt lat="48.6931" lon="1.95439">
        <ele>173.2</ele>
        <time>2025-03-18T09:24:28Z</time>
      </trkpt>
      <trkpt lat="48.69304" lon="1.95426">
        <ele>173.7</ele>
        <time>2025-03-18T09:24:36Z</time>
      </trkpt>
      <trkpt lat="48.69298" lon="1.95415">
        <ele>174</ele>
        <time>2025-03-18T09:24:44Z</time>
      </trkpt>
      <trkpt lat="48.69292" lon="1.95404">
        <ele>174</ele>
        <time>2025-03-18T09:26:36Z</time>
      </trkpt>
      <trkpt lat="48.69286" lon="1.95392">
        <ele>174</ele>
        <time>2025-03-18T09:26:44Z</time>
      </trkpt>
      <trkpt lat="48.69284" lon="1.95379">
        <ele>174.3</ele>
        <time>2025-03-18T09:26:55Z</time>
      </trkpt>
      <trkpt lat="48.69276" lon="1.95372">
        <ele>174.6</ele>
        <time>2025-03-18T09:27:07Z</time>
      </trkpt>
      <trkpt lat="48.69269" lon="1.9536">
        <ele>175</ele>
        <time>2025-03-18T09:27:16Z</time>
      </trkpt>
      <trkpt lat="48.69265" lon="1.95346">
        <ele>175</ele>
        <time>2025-03-18T09:27:24Z</time>
      </trkpt>
      <trkpt lat="48.69263" lon="1.95333">
        <ele>175</ele>
        <time>2025-03-18T09:27:31Z</time>
      </trkpt>
      <trkpt lat="48.69259" lon="1.9532">
        <ele>175</ele>
        <time>2025-03-18T09:27:38Z</time>
      </trkpt>
      <trkpt lat="48.69253" lon="1.95309">
        <ele>175</ele>
        <time>2025-03-18T09:27:45Z</time>
      </trkpt>
      <trkpt lat="48.69247" lon="1.95298">
        <ele>175.3</ele>
        <time>2025-03-18T09:27:52Z</time>
      </trkpt>
      <trkpt lat="48.6924" lon="1.95288">
        <ele>175.6</ele>
        <time>2025-03-18T09:27:59Z</time>
      </trkpt>
      <trkpt lat="48.69235" lon="1.95275">
        <ele>176</ele>
        <time>2025-03-18T09:28:06Z</time>
      </trkpt>
      <trkpt lat="48.69233" lon="1.9526">
        <ele>176</ele>
        <time>2025-03-18T09:28:13Z</time>
      </trkpt>
      <trkpt lat="48.69232" lon="1.95245">
        <ele>176</ele>
        <time>2025-03-18T09:28:20Z</time>
      </trkpt>
      <trkpt lat="48.69228" lon="1.95231">
        <ele>176</ele>
        <time>2025-03-18T09:28:27Z</time>
      </trkpt>
      <trkpt lat="48.69223" lon="1.95218">
        <ele>176</ele>
        <time>2025-03-18T09:28:34Z</time>
      </trkpt>
      <trkpt lat="48.69218" lon="1.95205">
        <ele>176</ele>
        <time>2025-03-18T09:28:41Z</time>
      </trkpt>
      <trkpt lat="48.69212" lon="1.95194">
        <ele>176</ele>
        <time>2025-03-18T09:28:48Z</time>
      </trkpt>
      <trkpt lat="48.69208" lon="1.9518">
        <ele>176</ele>
        <time>2025-03-18T09:28:55Z</time>
      </trkpt>
      <trkpt lat="48.69206" lon="1.95166">
        <ele>176</ele>
        <time>2025-03-18T09:29:01Z</time>
      </trkpt>
      <trkpt lat="48.69206" lon="1.95152">
        <ele>176.3</ele>
        <time>2025-03-18T09:29:08Z</time>
      </trkpt>
      <trkpt lat="48.69204" lon="1.95138">
        <ele>176.7</ele>
        <time>2025-03-18T09:29:14Z</time>
      </trkpt>
      <trkpt lat="48.692" lon="1.95125">
        <ele>176.9</ele>
        <time>2025-03-18T09:29:20Z</time>
      </trkpt>
      <trkpt lat="48.69195" lon="1.95112">
        <ele>177</ele>
        <time>2025-03-18T09:29:28Z</time>
      </trkpt>
      <trkpt lat="48.69199" lon="1.951">
        <ele>177</ele>
        <time>2025-03-18T09:29:40Z</time>
      </trkpt>
      <trkpt lat="48.69193" lon="1.95088">
        <ele>177</ele>
        <time>2025-03-18T09:29:48Z</time>
      </trkpt>
      <trkpt lat="48.69185" lon="1.9508">
        <ele>177</ele>
        <time>2025-03-18T09:29:58Z</time>
      </trkpt>
      <trkpt lat="48.6918" lon="1.95066">
        <ele>177</ele>
        <time>2025-03-18T09:30:06Z</time>
      </trkpt>
      <trkpt lat="48.69177" lon="1.95052">
        <ele>177</ele>
        <time>2025-03-18T09:30:13Z</time>
      </trkpt>
      <trkpt lat="48.69173" lon="1.95038">
        <ele>177</ele>
        <time>2025-03-18T09:30:21Z</time>
      </trkpt>
      <trkpt lat="48.6917" lon="1.95024">
        <ele>177.1</ele>
        <time>2025-03-18T09:30:28Z</time>
      </trkpt>
      <trkpt lat="48.69169" lon="1.95009">
        <ele>177.6</ele>
        <time>2025-03-18T09:30:35Z</time>
      </trkpt>
      <trkpt lat="48.69167" lon="1.94996">
        <ele>178</ele>
        <time>2025-03-18T09:30:41Z</time>
      </trkpt>
      <trkpt lat="48.69163" lon="1.94981">
        <ele>178</ele>
        <time>2025-03-18T09:30:49Z</time>
      </trkpt>
      <trkpt lat="48.69156" lon="1.94974">
        <ele>178</ele>
        <time>2025-03-18T09:30:57Z</time>
      </trkpt>
      <trkpt lat="48.69149" lon="1.94963">
        <ele>178</ele>
        <time>2025-03-18T09:31:14Z</time>
      </trkpt>
      <trkpt lat="48.69146" lon="1.9495">
        <ele>178</ele>
        <time>2025-03-18T09:31:24Z</time>
      </trkpt>
      <trkpt lat="48.69141" lon="1.94939">
        <ele>178</ele>
        <time>2025-03-18T09:31:31Z</time>
      </trkpt>
      <trkpt lat="48.69135" lon="1.94928">
        <ele>178</ele>
        <time>2025-03-18T09:31:38Z</time>
      </trkpt>
      <trkpt lat="48.69128" lon="1.94918">
        <ele>178</ele>
        <time>2025-03-18T09:31:47Z</time>
      </trkpt>
      <trkpt lat="48.69132" lon="1.94906">
        <ele>178</ele>
        <time>2025-03-18T09:32:20Z</time>
      </trkpt>
      <trkpt lat="48.69138" lon="1.94893">
        <ele>178</ele>
        <time>2025-03-18T09:32:30Z</time>
      </trkpt>
      <trkpt lat="48.69138" lon="1.94879">
        <ele>178</ele>
        <time>2025-03-18T09:32:38Z</time>
      </trkpt>
      <trkpt lat="48.69132" lon="1.94868">
        <ele>178</ele>
        <time>2025-03-18T09:32:46Z</time>
      </trkpt>
      <trkpt lat="48.69125" lon="1.94858">
        <ele>178</ele>
        <time>2025-03-18T09:32:53Z</time>
      </trkpt>
      <trkpt lat="48.69117" lon="1.94849">
        <ele>178</ele>
        <time>2025-03-18T09:33:00Z</time>
      </trkpt>
      <trkpt lat="48.69108" lon="1.94846">
        <ele>178</ele>
        <time>2025-03-18T09:33:10Z</time>
      </trkpt>
      <trkpt lat="48.69099" lon="1.94842">
        <ele>178</ele>
        <time>2025-03-18T09:33:23Z</time>
      </trkpt>
      <trkpt lat="48.69093" lon="1.9483">
        <ele>178</ele>
        <time>2025-03-18T09:33:31Z</time>
      </trkpt>
      <trkpt lat="48.69087" lon="1.94818">
        <ele>178.1</ele>
        <time>2025-03-18T09:33:39Z</time>
      </trkpt>
      <trkpt lat="48.6908" lon="1.94808">
        <ele>178</ele>
        <time>2025-03-18T09:33:47Z</time>
      </trkpt>
      <trkpt lat="48.69077" lon="1.94794">
        <ele>178</ele>
        <time>2025-03-18T09:33:57Z</time>
      </trkpt>
      <trkpt lat="48.69072" lon="1.94782">
        <ele>178</ele>
        <time>2025-03-18T09:34:06Z</time>
      </trkpt>
      <trkpt lat="48.69063" lon="1.94776">
        <ele>178</ele>
        <time>2025-03-18T09:34:16Z</time>
      </trkpt>
      <trkpt lat="48.69056" lon="1.94765">
        <ele>178</ele>
        <time>2025-03-18T09:34:25Z</time>
      </trkpt>
      <trkpt lat="48.6905" lon="1.94755">
        <ele>178</ele>
        <time>2025-03-18T09:34:32Z</time>
      </trkpt>
      <trkpt lat="48.69044" lon="1.94743">
        <ele>178</ele>
        <time>2025-03-18T09:34:39Z</time>
      </trkpt>
      <trkpt lat="48.69039" lon="1.94731">
        <ele>178</ele>
        <time>2025-03-18T09:34:46Z</time>
      </trkpt>
      <trkpt lat="48.69031" lon="1.94723">
        <ele>178</ele>
        <time>2025-03-18T09:34:53Z</time>
      </trkpt>
      <trkpt lat="48.69026" lon="1.9471">
        <ele>178</ele>
        <time>2025-03-18T09:35:01Z</time>
      </trkpt>
      <trkpt lat="48.6902" lon="1.947">
        <ele>177.8</ele>
        <time>2025-03-18T09:35:08Z</time>
      </trkpt>
      <trkpt lat="48.69013" lon="1.94687">
        <ele>177.5</ele>
        <time>2025-03-18T09:35:15Z</time>
      </trkpt>
      <trkpt lat="48.69007" lon="1.94676">
        <ele>177.3</ele>
        <time>2025-03-18T09:35:23Z</time>
      </trkpt>
      <trkpt lat="48.68999" lon="1.94667">
        <ele>177</ele>
        <time>2025-03-18T09:35:30Z</time>
      </trkpt>
      <trkpt lat="48.68999" lon="1.94653">
        <ele>177</ele>
        <time>2025-03-18T09:35:37Z</time>
      </trkpt>
      <trkpt lat="48.68994" lon="1.94641">
        <ele>176.8</ele>
        <time>2025-03-18T09:35:48Z</time>
      </trkpt>
      <trkpt lat="48.68986" lon="1.94633">
        <ele>176.5</ele>
        <time>2025-03-18T09:35:57Z</time>
      </trkpt>
      <trkpt lat="48.68983" lon="1.94619">
        <ele>176.4</ele>
        <time>2025-03-18T09:36:04Z</time>
      </trkpt>
      <trkpt lat="48.68978" lon="1.94607">
        <ele>176.2</ele>
        <time>2025-03-18T09:36:11Z</time>
      </trkpt>
      <trkpt lat="48.68972" lon="1.94595">
        <ele>176</ele>
        <time>2025-03-18T09:36:18Z</time>
      </trkpt>
      <trkpt lat="48.68968" lon="1.94584">
        <ele>175.8</ele>
        <time>2025-03-18T09:36:24Z</time>
      </trkpt>
      <trkpt lat="48.68963" lon="1.9457">
        <ele>175.2</ele>
        <time>2025-03-18T09:36:31Z</time>
      </trkpt>
      <trkpt lat="48.68958" lon="1.94558">
        <ele>174.6</ele>
        <time>2025-03-18T09:36:38Z</time>
      </trkpt>
      <trkpt lat="48.68952" lon="1.94545">
        <ele>174.3</ele>
        <time>2025-03-18T09:36:44Z</time>
      </trkpt>
      <trkpt lat="48.68948" lon="1.94532">
        <ele>174.1</ele>
        <time>2025-03-18T09:36:51Z</time>
      </trkpt>
      <trkpt lat="48.68943" lon="1.9452">
        <ele>174</ele>
        <time>2025-03-18T09:36:58Z</time>
      </trkpt>
      <trkpt lat="48.68939" lon="1.94506">
        <ele>173.8</ele>
        <time>2025-03-18T09:37:06Z</time>
      </trkpt>
      <trkpt lat="48.68936" lon="1.94493">
        <ele>173.7</ele>
        <time>2025-03-18T09:37:13Z</time>
      </trkpt>
      <trkpt lat="48.68931" lon="1.94481">
        <ele>173.5</ele>
        <time>2025-03-18T09:37:20Z</time>
      </trkpt>
      <trkpt lat="48.68927" lon="1.94467">
        <ele>173.4</ele>
        <time>2025-03-18T09:37:28Z</time>
      </trkpt>
      <trkpt lat="48.68922" lon="1.94455">
        <ele>173.2</ele>
        <time>2025-03-18T09:37:35Z</time>
      </trkpt>
      <trkpt lat="48.68919" lon="1.94441">
        <ele>173.1</ele>
        <time>2025-03-18T09:37:42Z</time>
      </trkpt>
      <trkpt lat="48.68912" lon="1.9443">
        <ele>173</ele>
        <time>2025-03-18T09:37:49Z</time>
      </trkpt>
      <trkpt lat="48.68904" lon="1.9442">
        <ele>173</ele>
        <time>2025-03-18T09:37:57Z</time>
      </trkpt>
      <trkpt lat="48.68899" lon="1.94408">
        <ele>173</ele>
        <time>2025-03-18T09:38:04Z</time>
      </trkpt>
      <trkpt lat="48.68898" lon="1.94394">
        <ele>173</ele>
        <time>2025-03-18T09:38:15Z</time>
      </trkpt>
      <trkpt lat="48.68895" lon="1.94379">
        <ele>173</ele>
        <time>2025-03-18T09:38:24Z</time>
      </trkpt>
      <trkpt lat="48.6889" lon="1.94366">
        <ele>173</ele>
        <time>2025-03-18T09:38:31Z</time>
      </trkpt>
      <trkpt lat="48.68883" lon="1.94355">
        <ele>173</ele>
        <time>2025-03-18T09:38:39Z</time>
      </trkpt>
      <trkpt lat="48.68877" lon="1.94344">
        <ele>173</ele>
        <time>2025-03-18T09:38:47Z</time>
      </trkpt>
      <trkpt lat="48.68871" lon="1.94334">
        <ele>173</ele>
        <time>2025-03-18T09:38:57Z</time>
      </trkpt>
      <trkpt lat="48.6887" lon="1.94318">
        <ele>173</ele>
        <time>2025-03-18T09:42:13Z</time>
      </trkpt>
      <trkpt lat="48.68864" lon="1.94307">
        <ele>173</ele>
        <time>2025-03-18T09:42:20Z</time>
      </trkpt>
      <trkpt lat="48.68858" lon="1.94295">
        <ele>173</ele>
        <time>2025-03-18T09:42:28Z</time>
      </trkpt>
      <trkpt lat="48.68853" lon="1.94283">
        <ele>173</ele>
        <time>2025-03-18T09:42:35Z</time>
      </trkpt>
      <trkpt lat="48.68856" lon="1.94271">
        <ele>173</ele>
        <time>2025-03-18T09:42:43Z</time>
      </trkpt>
      <trkpt lat="48.68849" lon="1.9426">
        <ele>173</ele>
        <time>2025-03-18T09:42:50Z</time>
      </trkpt>
      <trkpt lat="48.68844" lon="1.94248">
        <ele>173</ele>
        <time>2025-03-18T09:43:17Z</time>
      </trkpt>
      <trkpt lat="48.68839" lon="1.94235">
        <ele>173</ele>
        <time>2025-03-18T09:43:24Z</time>
      </trkpt>
      <trkpt lat="48.6883" lon="1.94235">
        <ele>173</ele>
        <time>2025-03-18T09:43:39Z</time>
      </trkpt>
      <trkpt lat="48.68828" lon="1.9425">
        <ele>173</ele>
        <time>2025-03-18T09:43:47Z</time>
      </trkpt>
      <trkpt lat="48.68828" lon="1.94265">
        <ele>173</ele>
        <time>2025-03-18T09:43:53Z</time>
      </trkpt>
      <trkpt lat="48.68828" lon="1.94282">
        <ele>173</ele>
        <time>2025-03-18T09:44:02Z</time>
      </trkpt>
      <trkpt lat="48.68827" lon="1.94297">
        <ele>173</ele>
        <time>2025-03-18T09:44:09Z</time>
      </trkpt>
      <trkpt lat="48.68823" lon="1.9431">
        <ele>173</ele>
        <time>2025-03-18T09:44:16Z</time>
      </trkpt>
      <trkpt lat="48.68818" lon="1.94324">
        <ele>173</ele>
        <time>2025-03-18T09:44:23Z</time>
      </trkpt>
      <trkpt lat="48.68814" lon="1.94338">
        <ele>173</ele>
        <time>2025-03-18T09:44:30Z</time>
      </trkpt>
      <trkpt lat="48.68812" lon="1.94353">
        <ele>173</ele>
        <time>2025-03-18T09:44:37Z</time>
      </trkpt>
      <trkpt lat="48.68809" lon="1.94368">
        <ele>173</ele>
        <time>2025-03-18T09:44:45Z</time>
      </trkpt>
      <trkpt lat="48.68803" lon="1.94378">
        <ele>172.9</ele>
        <time>2025-03-18T09:44:53Z</time>
      </trkpt>
      <trkpt lat="48.68795" lon="1.94388">
        <ele>172.6</ele>
        <time>2025-03-18T09:45:01Z</time>
      </trkpt>
      <trkpt lat="48.6879" lon="1.94399">
        <ele>172.4</ele>
        <time>2025-03-18T09:45:07Z</time>
      </trkpt>
      <trkpt lat="48.68785" lon="1.94412">
        <ele>172.3</ele>
        <time>2025-03-18T09:45:14Z</time>
      </trkpt>
      <trkpt lat="48.68785" lon="1.94426">
        <ele>172.5</ele>
        <time>2025-03-18T09:45:21Z</time>
      </trkpt>
      <trkpt lat="48.68785" lon="1.94441">
        <ele>172.9</ele>
        <time>2025-03-18T09:45:28Z</time>
      </trkpt>
      <trkpt lat="48.68781" lon="1.94454">
        <ele>173</ele>
        <time>2025-03-18T09:45:35Z</time>
      </trkpt>
      <trkpt lat="48.68773" lon="1.94463">
        <ele>172.9</ele>
        <time>2025-03-18T09:45:42Z</time>
      </trkpt>
      <trkpt lat="48.68769" lon="1.94475">
        <ele>173</ele>
        <time>2025-03-18T09:45:49Z</time>
      </trkpt>
      <trkpt lat="48.68764" lon="1.94488">
        <ele>173</ele>
        <time>2025-03-18T09:45:56Z</time>
      </trkpt>
      <trkpt lat="48.68759" lon="1.94499">
        <ele>173</ele>
        <time>2025-03-18T09:46:03Z</time>
      </trkpt>
      <trkpt lat="48.68752" lon="1.9451">
        <ele>173</ele>
        <time>2025-03-18T09:46:11Z</time>
      </trkpt>
      <trkpt lat="48.68748" lon="1.94525">
        <ele>173</ele>
        <time>2025-03-18T09:46:18Z</time>
      </trkpt>
      <trkpt lat="48.68744" lon="1.94537">
        <ele>173</ele>
        <time>2025-03-18T09:46:25Z</time>
      </trkpt>
      <trkpt lat="48.68738" lon="1.94548">
        <ele>173</ele>
        <time>2025-03-18T09:46:32Z</time>
      </trkpt>
      <trkpt lat="48.68731" lon="1.94559">
        <ele>173</ele>
        <time>2025-03-18T09:46:39Z</time>
      </trkpt>
      <trkpt lat="48.68726" lon="1.94571">
        <ele>173</ele>
        <time>2025-03-18T09:46:46Z</time>
      </trkpt>
      <trkpt lat="48.6872" lon="1.94583">
        <ele>173</ele>
        <time>2025-03-18T09:46:53Z</time>
      </trkpt>
      <trkpt lat="48.68715" lon="1.94595">
        <ele>173</ele>
        <time>2025-03-18T09:47:00Z</time>
      </trkpt>
      <trkpt lat="48.6871" lon="1.94607">
        <ele>173</ele>
        <time>2025-03-18T09:47:07Z</time>
      </trkpt>
      <trkpt lat="48.68703" lon="1.94619">
        <ele>173</ele>
        <time>2025-03-18T09:47:15Z</time>
      </trkpt>
      <trkpt lat="48.68698" lon="1.94631">
        <ele>173</ele>
        <time>2025-03-18T09:47:27Z</time>
      </trkpt>
      <trkpt lat="48.68693" lon="1.94643">
        <ele>173</ele>
        <time>2025-03-18T09:47:35Z</time>
      </trkpt>
      <trkpt lat="48.68688" lon="1.94657">
        <ele>172.8</ele>
        <time>2025-03-18T09:47:42Z</time>
      </trkpt>
      <trkpt lat="48.68682" lon="1.94668">
        <ele>172.6</ele>
        <time>2025-03-18T09:47:49Z</time>
      </trkpt>
      <trkpt lat="48.68678" lon="1.94682">
        <ele>172.4</ele>
        <time>2025-03-18T09:47:55Z</time>
      </trkpt>
      <trkpt lat="48.68673" lon="1.94694">
        <ele>172.2</ele>
        <time>2025-03-18T09:48:02Z</time>
      </trkpt>
      <trkpt lat="48.68668" lon="1.94706">
        <ele>172</ele>
        <time>2025-03-18T09:48:09Z</time>
      </trkpt>
      <trkpt lat="48.68662" lon="1.94719">
        <ele>172</ele>
        <time>2025-03-18T09:48:16Z</time>
      </trkpt>
      <trkpt lat="48.68657" lon="1.94732">
        <ele>172</ele>
        <time>2025-03-18T09:48:23Z</time>
      </trkpt>
      <trkpt lat="48.68656" lon="1.94746">
        <ele>172</ele>
        <time>2025-03-18T09:48:29Z</time>
      </trkpt>
      <trkpt lat="48.6865" lon="1.94757">
        <ele>172</ele>
        <time>2025-03-18T09:48:37Z</time>
      </trkpt>
      <trkpt lat="48.68644" lon="1.94769">
        <ele>172</ele>
        <time>2025-03-18T09:48:45Z</time>
      </trkpt>
      <trkpt lat="48.68638" lon="1.9478">
        <ele>172</ele>
        <time>2025-03-18T09:48:52Z</time>
      </trkpt>
      <trkpt lat="48.68629" lon="1.94787">
        <ele>172</ele>
        <time>2025-03-18T09:48:59Z</time>
      </trkpt>
      <trkpt lat="48.6862" lon="1.94795">
        <ele>172</ele>
        <time>2025-03-18T09:49:06Z</time>
      </trkpt>
      <trkpt lat="48.68612" lon="1.94805">
        <ele>172</ele>
        <time>2025-03-18T09:49:14Z</time>
      </trkpt>
      <trkpt lat="48.68603" lon="1.94811">
        <ele>172</ele>
        <time>2025-03-18T09:49:21Z</time>
      </trkpt>
      <trkpt lat="48.68594" lon="1.94817">
        <ele>172</ele>
        <time>2025-03-18T09:49:28Z</time>
      </trkpt>
      <trkpt lat="48.68585" lon="1.94823">
        <ele>172</ele>
        <time>2025-03-18T09:49:35Z</time>
      </trkpt>
      <trkpt lat="48.68576" lon="1.94822">
        <ele>172</ele>
        <time>2025-03-18T09:49:41Z</time>
      </trkpt>
      <trkpt lat="48.68566" lon="1.94825">
        <ele>172</ele>
        <time>2025-03-18T09:49:48Z</time>
      </trkpt>
      <trkpt lat="48.68556" lon="1.94827">
        <ele>172</ele>
        <time>2025-03-18T09:49:56Z</time>
      </trkpt>
      <trkpt lat="48.68547" lon="1.94827">
        <ele>172</ele>
        <time>2025-03-18T09:50:03Z</time>
      </trkpt>
      <trkpt lat="48.68537" lon="1.94829">
        <ele>172</ele>
        <time>2025-03-18T09:50:10Z</time>
      </trkpt>
      <trkpt lat="48.68528" lon="1.94831">
        <ele>172</ele>
        <time>2025-03-18T09:50:17Z</time>
      </trkpt>
      <trkpt lat="48.68519" lon="1.94832">
        <ele>172.3</ele>
        <time>2025-03-18T09:50:23Z</time>
      </trkpt>
      <trkpt lat="48.68509" lon="1.94833">
        <ele>172.7</ele>
        <time>2025-03-18T09:50:29Z</time>
      </trkpt>
      <trkpt lat="48.68499" lon="1.94835">
        <ele>172.9</ele>
        <time>2025-03-18T09:50:36Z</time>
      </trkpt>
      <trkpt lat="48.6849" lon="1.94837">
        <ele>172.5</ele>
        <time>2025-03-18T09:50:43Z</time>
      </trkpt>
      <trkpt lat="48.6848" lon="1.94838">
        <ele>172.1</ele>
        <time>2025-03-18T09:50:50Z</time>
      </trkpt>
      <trkpt lat="48.6847" lon="1.94839">
        <ele>171.7</ele>
        <time>2025-03-18T09:50:57Z</time>
      </trkpt>
      <trkpt lat="48.6846" lon="1.94841">
        <ele>171.1</ele>
        <time>2025-03-18T09:51:04Z</time>
      </trkpt>
      <trkpt lat="48.68451" lon="1.94844">
        <ele>170.3</ele>
        <time>2025-03-18T09:51:10Z</time>
      </trkpt>
      <trkpt lat="48.68442" lon="1.94848">
        <ele>169.4</ele>
        <time>2025-03-18T09:51:17Z</time>
      </trkpt>
      <trkpt lat="48.68432" lon="1.94852">
        <ele>169.1</ele>
        <time>2025-03-18T09:51:24Z</time>
      </trkpt>
      <trkpt lat="48.68424" lon="1.9486">
        <ele>168.8</ele>
        <time>2025-03-18T09:51:34Z</time>
      </trkpt>
      <trkpt lat="48.68414" lon="1.94859">
        <ele>169.1</ele>
        <time>2025-03-18T09:53:54Z</time>
      </trkpt>
      <trkpt lat="48.68407" lon="1.94867">
        <ele>169.2</ele>
        <time>2025-03-18T09:54:01Z</time>
      </trkpt>
      <trkpt lat="48.68397" lon="1.94871">
        <ele>169.6</ele>
        <time>2025-03-18T09:54:08Z</time>
      </trkpt>
      <trkpt lat="48.68387" lon="1.94873">
        <ele>169.9</ele>
        <time>2025-03-18T09:54:14Z</time>
      </trkpt>
      <trkpt lat="48.68377" lon="1.94873">
        <ele>169.3</ele>
        <time>2025-03-18T09:54:20Z</time>
      </trkpt>
      <trkpt lat="48.68369" lon="1.94866">
        <ele>168.7</ele>
        <time>2025-03-18T09:54:26Z</time>
      </trkpt>
      <trkpt lat="48.6836" lon="1.94858">
        <ele>167.9</ele>
        <time>2025-03-18T09:54:32Z</time>
      </trkpt>
      <trkpt lat="48.68353" lon="1.94849">
        <ele>167.4</ele>
        <time>2025-03-18T09:54:38Z</time>
      </trkpt>
      <trkpt lat="48.68345" lon="1.94843">
        <ele>166.8</ele>
        <time>2025-03-18T09:54:45Z</time>
      </trkpt>
      <trkpt lat="48.68336" lon="1.9484">
        <ele>166.2</ele>
        <time>2025-03-18T09:54:52Z</time>
      </trkpt>
      <trkpt lat="48.68326" lon="1.94844">
        <ele>165.2</ele>
        <time>2025-03-18T09:55:00Z</time>
      </trkpt>
      <trkpt lat="48.68317" lon="1.94847">
        <ele>164.3</ele>
        <time>2025-03-18T09:55:09Z</time>
      </trkpt>
      <trkpt lat="48.68315" lon="1.94862">
        <ele>164.1</ele>
        <time>2025-03-18T09:55:16Z</time>
      </trkpt>
      <trkpt lat="48.68311" lon="1.94876">
        <ele>164.6</ele>
        <time>2025-03-18T09:55:22Z</time>
      </trkpt>
      <trkpt lat="48.68307" lon="1.94888">
        <ele>165</ele>
        <time>2025-03-18T09:55:30Z</time>
      </trkpt>
      <trkpt lat="48.68298" lon="1.94896">
        <ele>165</ele>
        <time>2025-03-18T09:55:38Z</time>
      </trkpt>
      <trkpt lat="48.68289" lon="1.94902">
        <ele>165</ele>
        <time>2025-03-18T09:55:46Z</time>
      </trkpt>
      <trkpt lat="48.68279" lon="1.94907">
        <ele>165</ele>
        <time>2025-03-18T09:55:53Z</time>
      </trkpt>
      <trkpt lat="48.6827" lon="1.94912">
        <ele>164.9</ele>
        <time>2025-03-18T09:56:00Z</time>
      </trkpt>
      <trkpt lat="48.6826" lon="1.94918">
        <ele>164.9</ele>
        <time>2025-03-18T09:56:07Z</time>
      </trkpt>
      <trkpt lat="48.68252" lon="1.94923">
        <ele>164.6</ele>
        <time>2025-03-18T09:56:13Z</time>
      </trkpt>
      <trkpt lat="48.68243" lon="1.94928">
        <ele>164.1</ele>
        <time>2025-03-18T09:56:19Z</time>
      </trkpt>
      <trkpt lat="48.68234" lon="1.94935">
        <ele>163.7</ele>
        <time>2025-03-18T09:56:25Z</time>
      </trkpt>
      <trkpt lat="48.68225" lon="1.94942">
        <ele>163.1</ele>
        <time>2025-03-18T09:56:32Z</time>
      </trkpt>
      <trkpt lat="48.68217" lon="1.94951">
        <ele>163.1</ele>
        <time>2025-03-18T09:56:39Z</time>
      </trkpt>
      <trkpt lat="48.6821" lon="1.94961">
        <ele>163.3</ele>
        <time>2025-03-18T09:56:45Z</time>
      </trkpt>
      <trkpt lat="48.68202" lon="1.94971">
        <ele>163.5</ele>
        <time>2025-03-18T09:56:52Z</time>
      </trkpt>
      <trkpt lat="48.68196" lon="1.94982">
        <ele>163.8</ele>
        <time>2025-03-18T09:56:59Z</time>
      </trkpt>
      <trkpt lat="48.68189" lon="1.94994">
        <ele>163.9</ele>
        <time>2025-03-18T09:57:06Z</time>
      </trkpt>
      <trkpt lat="48.68182" lon="1.95004">
        <ele>163.9</ele>
        <time>2025-03-18T09:57:13Z</time>
      </trkpt>
      <trkpt lat="48.68174" lon="1.95014">
        <ele>163.7</ele>
        <time>2025-03-18T09:57:20Z</time>
      </trkpt>
      <trkpt lat="48.68171" lon="1.95027">
        <ele>164.3</ele>
        <time>2025-03-18T09:57:26Z</time>
      </trkpt>
      <trkpt lat="48.68163" lon="1.95035">
        <ele>163.6</ele>
        <time>2025-03-18T09:57:32Z</time>
      </trkpt>
      <trkpt lat="48.68157" lon="1.95047">
        <ele>163.2</ele>
        <time>2025-03-18T09:57:39Z</time>
      </trkpt>
      <trkpt lat="48.68152" lon="1.9506">
        <ele>163</ele>
        <time>2025-03-18T09:57:46Z</time>
      </trkpt>
      <trkpt lat="48.68145" lon="1.95073">
        <ele>163</ele>
        <time>2025-03-18T09:57:53Z</time>
      </trkpt>
      <trkpt lat="48.6814" lon="1.95085">
        <ele>163.2</ele>
        <time>2025-03-18T09:58:00Z</time>
      </trkpt>
      <trkpt lat="48.68139" lon="1.951">
        <ele>163.6</ele>
        <time>2025-03-18T09:58:07Z</time>
      </trkpt>
      <trkpt lat="48.68136" lon="1.95113">
        <ele>163.1</ele>
        <time>2025-03-18T09:58:14Z</time>
      </trkpt>
      <trkpt lat="48.68135" lon="1.95128">
        <ele>163.6</ele>
        <time>2025-03-18T09:58:21Z</time>
      </trkpt>
      <trkpt lat="48.68136" lon="1.95143">
        <ele>164.2</ele>
        <time>2025-03-18T09:58:28Z</time>
      </trkpt>
      <trkpt lat="48.68138" lon="1.95157">
        <ele>164.8</ele>
        <time>2025-03-18T09:58:34Z</time>
      </trkpt>
      <trkpt lat="48.6814" lon="1.95172">
        <ele>165.3</ele>
        <time>2025-03-18T09:58:41Z</time>
      </trkpt>
      <trkpt lat="48.68139" lon="1.95186">
        <ele>165.6</ele>
        <time>2025-03-18T09:58:47Z</time>
      </trkpt>
      <trkpt lat="48.68133" lon="1.95198">
        <ele>165</ele>
        <time>2025-03-18T09:58:54Z</time>
      </trkpt>
      <trkpt lat="48.68127" lon="1.95209">
        <ele>164.7</ele>
        <time>2025-03-18T09:59:00Z</time>
      </trkpt>
      <trkpt lat="48.68121" lon="1.95221">
        <ele>164.4</ele>
        <time>2025-03-18T09:59:07Z</time>
      </trkpt>
      <trkpt lat="48.68116" lon="1.95232">
        <ele>164.3</ele>
        <time>2025-03-18T09:59:14Z</time>
      </trkpt>
      <trkpt lat="48.6811" lon="1.95244">
        <ele>164.3</ele>
        <time>2025-03-18T09:59:21Z</time>
      </trkpt>
      <trkpt lat="48.68105" lon="1.95256">
        <ele>164.6</ele>
        <time>2025-03-18T09:59:28Z</time>
      </trkpt>
      <trkpt lat="48.68099" lon="1.95269">
        <ele>165</ele>
        <time>2025-03-18T09:59:35Z</time>
      </trkpt>
      <trkpt lat="48.68096" lon="1.95282">
        <ele>165.5</ele>
        <time>2025-03-18T09:59:41Z</time>
      </trkpt>
      <trkpt lat="48.68099" lon="1.95296">
        <ele>166.3</ele>
        <time>2025-03-18T09:59:50Z</time>
      </trkpt>
      <trkpt lat="48.68095" lon="1.95309">
        <ele>166.3</ele>
        <time>2025-03-18T10:00:02Z</time>
      </trkpt>
      <trkpt lat="48.68085" lon="1.95309">
        <ele>165.3</ele>
        <time>2025-03-18T10:00:13Z</time>
      </trkpt>
      <trkpt lat="48.68084" lon="1.95324">
        <ele>165.7</ele>
        <time>2025-03-18T10:00:22Z</time>
      </trkpt>
      <trkpt lat="48.68084" lon="1.95338">
        <ele>166.4</ele>
        <time>2025-03-18T10:00:30Z</time>
      </trkpt>
      <trkpt lat="48.68074" lon="1.95341">
        <ele>165.4</ele>
        <time>2025-03-18T10:00:40Z</time>
      </trkpt>
      <trkpt lat="48.68068" lon="1.95352">
        <ele>165.4</ele>
        <time>2025-03-18T10:00:47Z</time>
      </trkpt>
      <trkpt lat="48.68062" lon="1.95363">
        <ele>165.7</ele>
        <time>2025-03-18T10:00:55Z</time>
      </trkpt>
      <trkpt lat="48.68057" lon="1.95375">
        <ele>165.6</ele>
        <time>2025-03-18T10:01:03Z</time>
      </trkpt>
      <trkpt lat="48.68051" lon="1.95386">
        <ele>165.1</ele>
        <time>2025-03-18T10:01:13Z</time>
      </trkpt>
      <trkpt lat="48.6805" lon="1.954">
        <ele>165.4</ele>
        <time>2025-03-18T10:01:20Z</time>
      </trkpt>
      <trkpt lat="48.68048" lon="1.95413">
        <ele>165.7</ele>
        <time>2025-03-18T10:01:27Z</time>
      </trkpt>
      <trkpt lat="48.68048" lon="1.95428">
        <ele>166.3</ele>
        <time>2025-03-18T10:01:35Z</time>
      </trkpt>
      <trkpt lat="48.68046" lon="1.95442">
        <ele>166.6</ele>
        <time>2025-03-18T10:01:42Z</time>
      </trkpt>
      <trkpt lat="48.68045" lon="1.95457">
        <ele>166.5</ele>
        <time>2025-03-18T10:01:49Z</time>
      </trkpt>
      <trkpt lat="48.68041" lon="1.95471">
        <ele>166</ele>
        <time>2025-03-18T10:01:56Z</time>
      </trkpt>
      <trkpt lat="48.68039" lon="1.95486">
        <ele>166.1</ele>
        <time>2025-03-18T10:02:02Z</time>
      </trkpt>
      <trkpt lat="48.68035" lon="1.95499">
        <ele>165.9</ele>
        <time>2025-03-18T10:02:08Z</time>
      </trkpt>
      <trkpt lat="48.68029" lon="1.95512">
        <ele>166</ele>
        <time>2025-03-18T10:02:15Z</time>
      </trkpt>
      <trkpt lat="48.68024" lon="1.95525">
        <ele>166</ele>
        <time>2025-03-18T10:02:22Z</time>
      </trkpt>
      <trkpt lat="48.6802" lon="1.95538">
        <ele>165.9</ele>
        <time>2025-03-18T10:02:29Z</time>
      </trkpt>
      <trkpt lat="48.68015" lon="1.95552">
        <ele>165.9</ele>
        <time>2025-03-18T10:02:36Z</time>
      </trkpt>
      <trkpt lat="48.6801" lon="1.95564">
        <ele>166.1</ele>
        <time>2025-03-18T10:02:43Z</time>
      </trkpt>
      <trkpt lat="48.68007" lon="1.95577">
        <ele>166.6</ele>
        <time>2025-03-18T10:02:49Z</time>
      </trkpt>
      <trkpt lat="48.68002" lon="1.95589">
        <ele>166.7</ele>
        <time>2025-03-18T10:02:56Z</time>
      </trkpt>
      <trkpt lat="48.67997" lon="1.95602">
        <ele>166.7</ele>
        <time>2025-03-18T10:03:03Z</time>
      </trkpt>
      <trkpt lat="48.67993" lon="1.95615">
        <ele>166.8</ele>
        <time>2025-03-18T10:03:11Z</time>
      </trkpt>
      <trkpt lat="48.67988" lon="1.95628">
        <ele>167.2</ele>
        <time>2025-03-18T10:03:18Z</time>
      </trkpt>
      <trkpt lat="48.67985" lon="1.95641">
        <ele>167.8</ele>
        <time>2025-03-18T10:03:25Z</time>
      </trkpt>
      <trkpt lat="48.67979" lon="1.95652">
        <ele>167.7</ele>
        <time>2025-03-18T10:03:32Z</time>
      </trkpt>
      <trkpt lat="48.67973" lon="1.95664">
        <ele>167.9</ele>
        <time>2025-03-18T10:03:39Z</time>
      </trkpt>
      <trkpt lat="48.67971" lon="1.95678">
        <ele>168.2</ele>
        <time>2025-03-18T10:03:46Z</time>
      </trkpt>
      <trkpt lat="48.67965" lon="1.95691">
        <ele>167.8</ele>
        <time>2025-03-18T10:03:54Z</time>
      </trkpt>
      <trkpt lat="48.6796" lon="1.95704">
        <ele>167.8</ele>
        <time>2025-03-18T10:04:02Z</time>
      </trkpt>
      <trkpt lat="48.67956" lon="1.95717">
        <ele>168</ele>
        <time>2025-03-18T10:04:09Z</time>
      </trkpt>
      <trkpt lat="48.67952" lon="1.95729">
        <ele>168.3</ele>
        <time>2025-03-18T10:04:16Z</time>
      </trkpt>
      <trkpt lat="48.67949" lon="1.95743">
        <ele>168.8</ele>
        <time>2025-03-18T10:04:23Z</time>
      </trkpt>
      <trkpt lat="48.67945" lon="1.95756">
        <ele>169.3</ele>
        <time>2025-03-18T10:04:30Z</time>
      </trkpt>
      <trkpt lat="48.67941" lon="1.9577">
        <ele>169</ele>
        <time>2025-03-18T10:04:38Z</time>
      </trkpt>
      <trkpt lat="48.67937" lon="1.95784">
        <ele>168.9</ele>
        <time>2025-03-18T10:04:45Z</time>
      </trkpt>
      <trkpt lat="48.67932" lon="1.95797">
        <ele>168.8</ele>
        <time>2025-03-18T10:04:52Z</time>
      </trkpt>
      <trkpt lat="48.67928" lon="1.9581">
        <ele>168.8</ele>
        <time>2025-03-18T10:04:58Z</time>
      </trkpt>
      <trkpt lat="48.67923" lon="1.95823">
        <ele>168.4</ele>
        <time>2025-03-18T10:05:04Z</time>
      </trkpt>
      <trkpt lat="48.67919" lon="1.95836">
        <ele>168.4</ele>
        <time>2025-03-18T10:05:10Z</time>
      </trkpt>
      <trkpt lat="48.67915" lon="1.9585">
        <ele>168.6</ele>
        <time>2025-03-18T10:05:17Z</time>
      </trkpt>
      <trkpt lat="48.67911" lon="1.95864">
        <ele>168.4</ele>
        <time>2025-03-18T10:05:24Z</time>
      </trkpt>
      <trkpt lat="48.67905" lon="1.95877">
        <ele>167.8</ele>
        <time>2025-03-18T10:05:31Z</time>
      </trkpt>
      <trkpt lat="48.67901" lon="1.95889">
        <ele>167.5</ele>
        <time>2025-03-18T10:05:37Z</time>
      </trkpt>
      <trkpt lat="48.67895" lon="1.95902">
        <ele>167.5</ele>
        <time>2025-03-18T10:05:44Z</time>
      </trkpt>
      <trkpt lat="48.6789" lon="1.95915">
        <ele>167.9</ele>
        <time>2025-03-18T10:05:51Z</time>
      </trkpt>
      <trkpt lat="48.67886" lon="1.95928">
        <ele>167.6</ele>
        <time>2025-03-18T10:05:58Z</time>
      </trkpt>
      <trkpt lat="48.67881" lon="1.95941">
        <ele>167.4</ele>
        <time>2025-03-18T10:06:04Z</time>
      </trkpt>
      <trkpt lat="48.67875" lon="1.95953">
        <ele>166.9</ele>
        <time>2025-03-18T10:06:11Z</time>
      </trkpt>
      <trkpt lat="48.67868" lon="1.95964">
        <ele>166.4</ele>
        <time>2025-03-18T10:06:17Z</time>
      </trkpt>
      <trkpt lat="48.67862" lon="1.95974">
        <ele>166.2</ele>
        <time>2025-03-18T10:06:23Z</time>
      </trkpt>
      <trkpt lat="48.67854" lon="1.95983">
        <ele>164.7</ele>
        <time>2025-03-18T10:06:30Z</time>
      </trkpt>
      <trkpt lat="48.67849" lon="1.95995">
        <ele>164.5</ele>
        <time>2025-03-18T10:06:36Z</time>
      </trkpt>
      <trkpt lat="48.67842" lon="1.96006">
        <ele>164</ele>
        <time>2025-03-18T10:06:43Z</time>
      </trkpt>
      <trkpt lat="48.67835" lon="1.96016">
        <ele>163.7</ele>
        <time>2025-03-18T10:06:50Z</time>
      </trkpt>
      <trkpt lat="48.67829" lon="1.96028">
        <ele>163.7</ele>
        <time>2025-03-18T10:06:57Z</time>
      </trkpt>
      <trkpt lat="48.67823" lon="1.96038">
        <ele>162.9</ele>
        <time>2025-03-18T10:07:03Z</time>
      </trkpt>
      <trkpt lat="48.67815" lon="1.96048">
        <ele>161.6</ele>
        <time>2025-03-18T10:07:10Z</time>
      </trkpt>
      <trkpt lat="48.67809" lon="1.9606">
        <ele>161.6</ele>
        <time>2025-03-18T10:07:17Z</time>
      </trkpt>
      <trkpt lat="48.67808" lon="1.96075">
        <ele>162.8</ele>
        <time>2025-03-18T10:07:24Z</time>
      </trkpt>
      <trkpt lat="48.67806" lon="1.9609">
        <ele>163.6</ele>
        <time>2025-03-18T10:07:32Z</time>
      </trkpt>
      <trkpt lat="48.67802" lon="1.96103">
        <ele>163.3</ele>
        <time>2025-03-18T10:07:41Z</time>
      </trkpt>
      <trkpt lat="48.67795" lon="1.96114">
        <ele>162.3</ele>
        <time>2025-03-18T10:07:49Z</time>
      </trkpt>
      <trkpt lat="48.6779" lon="1.96128">
        <ele>162.7</ele>
        <time>2025-03-18T10:07:57Z</time>
      </trkpt>
      <trkpt lat="48.67787" lon="1.96143">
        <ele>163.6</ele>
        <time>2025-03-18T10:08:04Z</time>
      </trkpt>
      <trkpt lat="48.67785" lon="1.96157">
        <ele>163.9</ele>
        <time>2025-03-18T10:08:11Z</time>
      </trkpt>
      <trkpt lat="48.67786" lon="1.96171">
        <ele>164.5</ele>
        <time>2025-03-18T10:08:18Z</time>
      </trkpt>
      <trkpt lat="48.67789" lon="1.96183">
        <ele>164.5</ele>
        <time>2025-03-18T10:08:25Z</time>
      </trkpt>
      <trkpt lat="48.67795" lon="1.96195">
        <ele>165.2</ele>
        <time>2025-03-18T10:08:32Z</time>
      </trkpt>
      <trkpt lat="48.678" lon="1.96207">
        <ele>165.2</ele>
        <time>2025-03-18T10:08:39Z</time>
      </trkpt>
      <trkpt lat="48.67804" lon="1.9622">
        <ele>164.8</ele>
        <time>2025-03-18T10:08:45Z</time>
      </trkpt>
      <trkpt lat="48.67808" lon="1.96234">
        <ele>165.1</ele>
        <time>2025-03-18T10:08:52Z</time>
      </trkpt>
      <trkpt lat="48.67811" lon="1.96247">
        <ele>165.1</ele>
        <time>2025-03-18T10:08:59Z</time>
      </trkpt>
      <trkpt lat="48.67812" lon="1.96261">
        <ele>164.8</ele>
        <time>2025-03-18T10:09:06Z</time>
      </trkpt>
      <trkpt lat="48.67814" lon="1.96276">
        <ele>164.6</ele>
        <time>2025-03-18T10:09:14Z</time>
      </trkpt>
      <trkpt lat="48.67816" lon="1.96289">
        <ele>163.7</ele>
        <time>2025-03-18T10:09:21Z</time>
      </trkpt>
      <trkpt lat="48.67819" lon="1.96303">
        <ele>162.7</ele>
        <time>2025-03-18T10:09:30Z</time>
      </trkpt>
      <trkpt lat="48.67828" lon="1.96295">
        <ele>165.1</ele>
        <time>2025-03-18T10:09:55Z</time>
      </trkpt>
      <trkpt lat="48.67837" lon="1.96294">
        <ele>166.4</ele>
        <time>2025-03-18T10:10:04Z</time>
      </trkpt>
      <trkpt lat="48.67828" lon="1.96296">
        <ele>165.1</ele>
        <time>2025-03-18T10:11:10Z</time>
      </trkpt>
      <trkpt lat="48.67819" lon="1.96298">
        <ele>163.2</ele>
        <time>2025-03-18T10:11:24Z</time>
      </trkpt>
      <trkpt lat="48.67827" lon="1.96308">
        <ele>163.5</ele>
        <time>2025-03-18T10:13:04Z</time>
      </trkpt>
      <trkpt lat="48.67832" lon="1.9632">
        <ele>162.1</ele>
        <time>2025-03-18T10:13:12Z</time>
      </trkpt>
      <trkpt lat="48.67839" lon="1.96329">
        <ele>161.2</ele>
        <time>2025-03-18T10:13:19Z</time>
      </trkpt>
      <trkpt lat="48.67848" lon="1.96334">
        <ele>160.9</ele>
        <time>2025-03-18T10:13:26Z</time>
      </trkpt>
      <trkpt lat="48.67857" lon="1.96337">
        <ele>160.6</ele>
        <time>2025-03-18T10:13:32Z</time>
      </trkpt>
      <trkpt lat="48.67866" lon="1.96342">
        <ele>160</ele>
        <time>2025-03-18T10:13:40Z</time>
      </trkpt>
      <trkpt lat="48.67875" lon="1.96348">
        <ele>159</ele>
        <time>2025-03-18T10:13:47Z</time>
      </trkpt>
      <trkpt lat="48.67884" lon="1.9635">
        <ele>159.2</ele>
        <time>2025-03-18T10:13:56Z</time>
      </trkpt>
      <trkpt lat="48.67892" lon="1.96343">
        <ele>160.8</ele>
        <time>2025-03-18T10:14:05Z</time>
      </trkpt>
      <trkpt lat="48.67902" lon="1.9634">
        <ele>161.5</ele>
        <time>2025-03-18T10:14:13Z</time>
      </trkpt>
      <trkpt lat="48.6791" lon="1.96331">
        <ele>163.2</ele>
        <time>2025-03-18T10:14:21Z</time>
      </trkpt>
      <trkpt lat="48.67911" lon="1.96318">
        <ele>164.8</ele>
        <time>2025-03-18T10:14:29Z</time>
      </trkpt>
      <trkpt lat="48.6792" lon="1.96316">
        <ele>164.9</ele>
        <time>2025-03-18T10:14:38Z</time>
      </trkpt>
      <trkpt lat="48.6793" lon="1.96316">
        <ele>164.7</ele>
        <time>2025-03-18T10:14:45Z</time>
      </trkpt>
      <trkpt lat="48.67939" lon="1.96314">
        <ele>164.8</ele>
        <time>2025-03-18T10:14:52Z</time>
      </trkpt>
      <trkpt lat="48.67949" lon="1.96313">
        <ele>164.8</ele>
        <time>2025-03-18T10:14:59Z</time>
      </trkpt>
      <trkpt lat="48.6796" lon="1.96312">
        <ele>164.5</ele>
        <time>2025-03-18T10:15:06Z</time>
      </trkpt>
      <trkpt lat="48.67969" lon="1.9631">
        <ele>164.4</ele>
        <time>2025-03-18T10:15:13Z</time>
      </trkpt>
      <trkpt lat="48.67979" lon="1.96309">
        <ele>164.4</ele>
        <time>2025-03-18T10:15:20Z</time>
      </trkpt>
      <trkpt lat="48.67988" lon="1.96307">
        <ele>164.8</ele>
        <time>2025-03-18T10:15:26Z</time>
      </trkpt>
      <trkpt lat="48.67998" lon="1.96303">
        <ele>165.2</ele>
        <time>2025-03-18T10:15:33Z</time>
      </trkpt>
      <trkpt lat="48.68008" lon="1.963">
        <ele>165.6</ele>
        <time>2025-03-18T10:15:40Z</time>
      </trkpt>
      <trkpt lat="48.68018" lon="1.96298">
        <ele>165.8</ele>
        <time>2025-03-18T10:15:47Z</time>
      </trkpt>
      <trkpt lat="48.68028" lon="1.96298">
        <ele>165.8</ele>
        <time>2025-03-18T10:15:54Z</time>
      </trkpt>
      <trkpt lat="48.68038" lon="1.96294">
        <ele>165.9</ele>
        <time>2025-03-18T10:16:01Z</time>
      </trkpt>
      <trkpt lat="48.68047" lon="1.96291">
        <ele>165.9</ele>
        <time>2025-03-18T10:16:08Z</time>
      </trkpt>
      <trkpt lat="48.68057" lon="1.9629">
        <ele>165.6</ele>
        <time>2025-03-18T10:16:14Z</time>
      </trkpt>
      <trkpt lat="48.68066" lon="1.96286">
        <ele>165.3</ele>
        <time>2025-03-18T10:16:21Z</time>
      </trkpt>
      <trkpt lat="48.68076" lon="1.96281">
        <ele>165.2</ele>
        <time>2025-03-18T10:16:28Z</time>
      </trkpt>
      <trkpt lat="48.68086" lon="1.9628">
        <ele>164.7</ele>
        <time>2025-03-18T10:16:35Z</time>
      </trkpt>
      <trkpt lat="48.68096" lon="1.9628">
        <ele>164.2</ele>
        <time>2025-03-18T10:16:42Z</time>
      </trkpt>
      <trkpt lat="48.68105" lon="1.96282">
        <ele>163.7</ele>
        <time>2025-03-18T10:16:49Z</time>
      </trkpt>
      <trkpt lat="48.68115" lon="1.96281">
        <ele>163.1</ele>
        <time>2025-03-18T10:16:56Z</time>
      </trkpt>
      <trkpt lat="48.68125" lon="1.9628">
        <ele>162.2</ele>
        <time>2025-03-18T10:17:03Z</time>
      </trkpt>
      <trkpt lat="48.68134" lon="1.96277">
        <ele>161.6</ele>
        <time>2025-03-18T10:17:09Z</time>
      </trkpt>
      <trkpt lat="48.68142" lon="1.96272">
        <ele>160.9</ele>
        <time>2025-03-18T10:17:17Z</time>
      </trkpt>
      <trkpt lat="48.68151" lon="1.96264">
        <ele>161</ele>
        <time>2025-03-18T10:17:27Z</time>
      </trkpt>
      <trkpt lat="48.68159" lon="1.96258">
        <ele>161.7</ele>
        <time>2025-03-18T10:17:36Z</time>
      </trkpt>
      <trkpt lat="48.68168" lon="1.9625">
        <ele>162.9</ele>
        <time>2025-03-18T10:17:44Z</time>
      </trkpt>
      <trkpt lat="48.68177" lon="1.96243">
        <ele>163.4</ele>
        <time>2025-03-18T10:17:51Z</time>
      </trkpt>
      <trkpt lat="48.68186" lon="1.96238">
        <ele>164</ele>
        <time>2025-03-18T10:17:58Z</time>
      </trkpt>
      <trkpt lat="48.68195" lon="1.96232">
        <ele>164.9</ele>
        <time>2025-03-18T10:18:06Z</time>
      </trkpt>
      <trkpt lat="48.68204" lon="1.96227">
        <ele>165.3</ele>
        <time>2025-03-18T10:18:13Z</time>
      </trkpt>
      <trkpt lat="48.68213" lon="1.96221">
        <ele>165.4</ele>
        <time>2025-03-18T10:18:20Z</time>
      </trkpt>
      <trkpt lat="48.68222" lon="1.96216">
        <ele>165.5</ele>
        <time>2025-03-18T10:18:27Z</time>
      </trkpt>
      <trkpt lat="48.68232" lon="1.96213">
        <ele>165.5</ele>
        <time>2025-03-18T10:18:34Z</time>
      </trkpt>
      <trkpt lat="48.68242" lon="1.96211">
        <ele>165.5</ele>
        <time>2025-03-18T10:18:41Z</time>
      </trkpt>
      <trkpt lat="48.6825" lon="1.96203">
        <ele>165.7</ele>
        <time>2025-03-18T10:18:48Z</time>
      </trkpt>
      <trkpt lat="48.68257" lon="1.96193">
        <ele>165.6</ele>
        <time>2025-03-18T10:18:55Z</time>
      </trkpt>
      <trkpt lat="48.68267" lon="1.9619">
        <ele>165.1</ele>
        <time>2025-03-18T10:19:02Z</time>
      </trkpt>
      <trkpt lat="48.68275" lon="1.96182">
        <ele>165.1</ele>
        <time>2025-03-18T10:19:09Z</time>
      </trkpt>
      <trkpt lat="48.68285" lon="1.96178">
        <ele>165</ele>
        <time>2025-03-18T10:19:16Z</time>
      </trkpt>
      <trkpt lat="48.68294" lon="1.96172">
        <ele>165</ele>
        <time>2025-03-18T10:19:23Z</time>
      </trkpt>
      <trkpt lat="48.68303" lon="1.96166">
        <ele>165.1</ele>
        <time>2025-03-18T10:19:30Z</time>
      </trkpt>
      <trkpt lat="48.68313" lon="1.96162">
        <ele>164.7</ele>
        <time>2025-03-18T10:19:37Z</time>
      </trkpt>
      <trkpt lat="48.68322" lon="1.96156">
        <ele>164.4</ele>
        <time>2025-03-18T10:19:44Z</time>
      </trkpt>
      <trkpt lat="48.68331" lon="1.96151">
        <ele>164.3</ele>
        <time>2025-03-18T10:19:53Z</time>
      </trkpt>
      <trkpt lat="48.6834" lon="1.96145">
        <ele>164.2</ele>
        <time>2025-03-18T10:20:05Z</time>
      </trkpt>
      <trkpt lat="48.68349" lon="1.96142">
        <ele>163.7</ele>
        <time>2025-03-18T10:20:13Z</time>
      </trkpt>
      <trkpt lat="48.68358" lon="1.9614">
        <ele>163.2</ele>
        <time>2025-03-18T10:20:20Z</time>
      </trkpt>
      <trkpt lat="48.68368" lon="1.96138">
        <ele>162.3</ele>
        <time>2025-03-18T10:20:28Z</time>
      </trkpt>
      <trkpt lat="48.68377" lon="1.96135">
        <ele>161.4</ele>
        <time>2025-03-18T10:20:36Z</time>
      </trkpt>
      <trkpt lat="48.68387" lon="1.96133">
        <ele>160.4</ele>
        <time>2025-03-18T10:20:43Z</time>
      </trkpt>
      <trkpt lat="48.68397" lon="1.9613">
        <ele>158.9</ele>
        <time>2025-03-18T10:20:50Z</time>
      </trkpt>
      <trkpt lat="48.68406" lon="1.96128">
        <ele>157.3</ele>
        <time>2025-03-18T10:20:57Z</time>
      </trkpt>
      <trkpt lat="48.68416" lon="1.96126">
        <ele>155.6</ele>
        <time>2025-03-18T10:21:06Z</time>
      </trkpt>
      <trkpt lat="48.68425" lon="1.9613">
        <ele>154</ele>
        <time>2025-03-18T10:21:15Z</time>
      </trkpt>
      <trkpt lat="48.68433" lon="1.96125">
        <ele>152.9</ele>
        <time>2025-03-18T10:21:24Z</time>
      </trkpt>
      <trkpt lat="48.68442" lon="1.96125">
        <ele>151.4</ele>
        <time>2025-03-18T10:21:35Z</time>
      </trkpt>
      <trkpt lat="48.68451" lon="1.96122">
        <ele>150.9</ele>
        <time>2025-03-18T10:21:44Z</time>
      </trkpt>
      <trkpt lat="48.68461" lon="1.96117">
        <ele>151</ele>
        <time>2025-03-18T10:21:53Z</time>
      </trkpt>
      <trkpt lat="48.68469" lon="1.96109">
        <ele>151.2</ele>
        <time>2025-03-18T10:22:04Z</time>
      </trkpt>
      <trkpt lat="48.68478" lon="1.96109">
        <ele>151.9</ele>
        <time>2025-03-18T10:22:15Z</time>
      </trkpt>
      <trkpt lat="48.68486" lon="1.96101">
        <ele>153.4</ele>
        <time>2025-03-18T10:22:24Z</time>
      </trkpt>
      <trkpt lat="48.68493" lon="1.96092">
        <ele>154.7</ele>
        <time>2025-03-18T10:22:34Z</time>
      </trkpt>
      <trkpt lat="48.68501" lon="1.96085">
        <ele>156.2</ele>
        <time>2025-03-18T10:22:42Z</time>
      </trkpt>
      <trkpt lat="48.68506" lon="1.96073">
        <ele>157.6</ele>
        <time>2025-03-18T10:22:50Z</time>
      </trkpt>
      <trkpt lat="48.68512" lon="1.96061">
        <ele>159.1</ele>
        <time>2025-03-18T10:22:59Z</time>
      </trkpt>
      <trkpt lat="48.68519" lon="1.96052">
        <ele>160.7</ele>
        <time>2025-03-18T10:23:09Z</time>
      </trkpt>
      <trkpt lat="48.68522" lon="1.96037">
        <ele>161</ele>
        <time>2025-03-18T10:23:21Z</time>
      </trkpt>
      <trkpt lat="48.68525" lon="1.96023">
        <ele>161.4</ele>
        <time>2025-03-18T10:23:29Z</time>
      </trkpt>
      <trkpt lat="48.68528" lon="1.9601">
        <ele>162</ele>
        <time>2025-03-18T10:23:37Z</time>
      </trkpt>
      <trkpt lat="48.6853" lon="1.95996">
        <ele>162.3</ele>
        <time>2025-03-18T10:23:45Z</time>
      </trkpt>
      <trkpt lat="48.68532" lon="1.95981">
        <ele>162.5</ele>
        <time>2025-03-18T10:23:54Z</time>
      </trkpt>
      <trkpt lat="48.68537" lon="1.95969">
        <ele>163.3</ele>
        <time>2025-03-18T10:24:02Z</time>
      </trkpt>
      <trkpt lat="48.68542" lon="1.95956">
        <ele>164</ele>
        <time>2025-03-18T10:24:10Z</time>
      </trkpt>
      <trkpt lat="48.68547" lon="1.95944">
        <ele>164.8</ele>
        <time>2025-03-18T10:24:18Z</time>
      </trkpt>
      <trkpt lat="48.68554" lon="1.95934">
        <ele>165.7</ele>
        <time>2025-03-18T10:24:26Z</time>
      </trkpt>
      <trkpt lat="48.68557" lon="1.9592">
        <ele>166.1</ele>
        <time>2025-03-18T10:24:35Z</time>
      </trkpt>
      <trkpt lat="48.68557" lon="1.95906">
        <ele>166.1</ele>
        <time>2025-03-18T10:24:43Z</time>
      </trkpt>
      <trkpt lat="48.68558" lon="1.95892">
        <ele>166.2</ele>
        <time>2025-03-18T10:24:54Z</time>
      </trkpt>
      <trkpt lat="48.68568" lon="1.95891">
        <ele>166.9</ele>
        <time>2025-03-18T10:25:01Z</time>
      </trkpt>
      <trkpt lat="48.68576" lon="1.95896">
        <ele>167.5</ele>
        <time>2025-03-18T10:25:08Z</time>
      </trkpt>
      <trkpt lat="48.68585" lon="1.95902">
        <ele>168.1</ele>
        <time>2025-03-18T10:25:15Z</time>
      </trkpt>
      <trkpt lat="48.68593" lon="1.95911">
        <ele>168.7</ele>
        <time>2025-03-18T10:25:23Z</time>
      </trkpt>
      <trkpt lat="48.68602" lon="1.95909">
        <ele>169.3</ele>
        <time>2025-03-18T10:25:33Z</time>
      </trkpt>
      <trkpt lat="48.68611" lon="1.95906">
        <ele>170</ele>
        <time>2025-03-18T10:25:43Z</time>
      </trkpt>
      <trkpt lat="48.6862" lon="1.95908">
        <ele>170.3</ele>
        <time>2025-03-18T10:25:51Z</time>
      </trkpt>
      <trkpt lat="48.68628" lon="1.95916">
        <ele>170.6</ele>
        <time>2025-03-18T10:25:59Z</time>
      </trkpt>
      <trkpt lat="48.68637" lon="1.9592">
        <ele>170.8</ele>
        <time>2025-03-18T10:26:06Z</time>
      </trkpt>
      <trkpt lat="48.68646" lon="1.9592">
        <ele>171.2</ele>
        <time>2025-03-18T10:26:14Z</time>
      </trkpt>
      <trkpt lat="48.68655" lon="1.95923">
        <ele>171.4</ele>
        <time>2025-03-18T10:26:21Z</time>
      </trkpt>
      <trkpt lat="48.68663" lon="1.95931">
        <ele>171.4</ele>
        <time>2025-03-18T10:26:28Z</time>
      </trkpt>
      <trkpt lat="48.6867" lon="1.95941">
        <ele>171.4</ele>
        <time>2025-03-18T10:26:37Z</time>
      </trkpt>
      <trkpt lat="48.6867" lon="1.95955">
        <ele>171.2</ele>
        <time>2025-03-18T10:26:45Z</time>
      </trkpt>
      <trkpt lat="48.68669" lon="1.9597">
        <ele>171.2</ele>
        <time>2025-03-18T10:26:53Z</time>
      </trkpt>
      <trkpt lat="48.68669" lon="1.95984">
        <ele>171.5</ele>
        <time>2025-03-18T10:27:00Z</time>
      </trkpt>
      <trkpt lat="48.68665" lon="1.95998">
        <ele>171.8</ele>
        <time>2025-03-18T10:27:07Z</time>
      </trkpt>
      <trkpt lat="48.68659" lon="1.9601">
        <ele>171.5</ele>
        <time>2025-03-18T10:27:13Z</time>
      </trkpt>
      <trkpt lat="48.68657" lon="1.96025">
        <ele>171.3</ele>
        <time>2025-03-18T10:27:21Z</time>
      </trkpt>
      <trkpt lat="48.68661" lon="1.96039">
        <ele>171.7</ele>
        <time>2025-03-18T10:27:29Z</time>
      </trkpt>
      <trkpt lat="48.68662" lon="1.96054">
        <ele>171.8</ele>
        <time>2025-03-18T10:27:37Z</time>
      </trkpt>
      <trkpt lat="48.68663" lon="1.96068">
        <ele>171.9</ele>
        <time>2025-03-18T10:27:44Z</time>
      </trkpt>
      <trkpt lat="48.68664" lon="1.96083">
        <ele>171.9</ele>
        <time>2025-03-18T10:27:52Z</time>
      </trkpt>
      <trkpt lat="48.68659" lon="1.96096">
        <ele>171.4</ele>
        <time>2025-03-18T10:29:01Z</time>
      </trkpt>
      <trkpt lat="48.68654" lon="1.96107">
        <ele>171.1</ele>
        <time>2025-03-18T10:29:09Z</time>
      </trkpt>
      <trkpt lat="48.68649" lon="1.96119">
        <ele>170.4</ele>
        <time>2025-03-18T10:29:16Z</time>
      </trkpt>
      <trkpt lat="48.68643" lon="1.9613">
        <ele>169.6</ele>
        <time>2025-03-18T10:29:23Z</time>
      </trkpt>
      <trkpt lat="48.68638" lon="1.96143">
        <ele>168.4</ele>
        <time>2025-03-18T10:29:30Z</time>
      </trkpt>
      <trkpt lat="48.68634" lon="1.96155">
        <ele>166.5</ele>
        <time>2025-03-18T10:29:36Z</time>
      </trkpt>
      <trkpt lat="48.68629" lon="1.96167">
        <ele>164.5</ele>
        <time>2025-03-18T10:29:42Z</time>
      </trkpt>
      <trkpt lat="48.68623" lon="1.96179">
        <ele>161.8</ele>
        <time>2025-03-18T10:29:51Z</time>
      </trkpt>
      <trkpt lat="48.68616" lon="1.9619">
        <ele>159.1</ele>
        <time>2025-03-18T10:29:59Z</time>
      </trkpt>
      <trkpt lat="48.68621" lon="1.96202">
        <ele>156.7</ele>
        <time>2025-03-18T10:30:09Z</time>
      </trkpt>
      <trkpt lat="48.68628" lon="1.96214">
        <ele>154.4</ele>
        <time>2025-03-18T10:30:18Z</time>
      </trkpt>
      <trkpt lat="48.68635" lon="1.96222">
        <ele>152.8</ele>
        <time>2025-03-18T10:30:26Z</time>
      </trkpt>
      <trkpt lat="48.68643" lon="1.96228">
        <ele>151.5</ele>
        <time>2025-03-18T10:30:35Z</time>
      </trkpt>
      <trkpt lat="48.68646" lon="1.96242">
        <ele>149</ele>
        <time>2025-03-18T10:30:43Z</time>
      </trkpt>
      <trkpt lat="48.68652" lon="1.96253">
        <ele>146.6</ele>
        <time>2025-03-18T10:30:51Z</time>
      </trkpt>
      <trkpt lat="48.6866" lon="1.96262">
        <ele>144.8</ele>
        <time>2025-03-18T10:31:00Z</time>
      </trkpt>
      <trkpt lat="48.6867" lon="1.96263">
        <ele>143.8</ele>
        <time>2025-03-18T10:31:10Z</time>
      </trkpt>
      <trkpt lat="48.68678" lon="1.96269">
        <ele>142.4</ele>
        <time>2025-03-18T10:31:18Z</time>
      </trkpt>
      <trkpt lat="48.68688" lon="1.96272">
        <ele>141.2</ele>
        <time>2025-03-18T10:31:26Z</time>
      </trkpt>
      <trkpt lat="48.68697" lon="1.96271">
        <ele>140.6</ele>
        <time>2025-03-18T10:31:36Z</time>
      </trkpt>
      <trkpt lat="48.68706" lon="1.96273">
        <ele>140.2</ele>
        <time>2025-03-18T10:31:43Z</time>
      </trkpt>
      <trkpt lat="48.68716" lon="1.96276">
        <ele>139.5</ele>
        <time>2025-03-18T10:31:50Z</time>
      </trkpt>
      <trkpt lat="48.68725" lon="1.96279">
        <ele>138.8</ele>
        <time>2025-03-18T10:31:57Z</time>
      </trkpt>
      <trkpt lat="48.68734" lon="1.96286">
        <ele>137.5</ele>
        <time>2025-03-18T10:32:04Z</time>
      </trkpt>
      <trkpt lat="48.68743" lon="1.9629">
        <ele>136.3</ele>
        <time>2025-03-18T10:32:11Z</time>
      </trkpt>
      <trkpt lat="48.68752" lon="1.96297">
        <ele>134.8</ele>
        <time>2025-03-18T10:32:18Z</time>
      </trkpt>
      <trkpt lat="48.68761" lon="1.96303">
        <ele>133.5</ele>
        <time>2025-03-18T10:32:25Z</time>
      </trkpt>
      <trkpt lat="48.68769" lon="1.96313">
        <ele>132.3</ele>
        <time>2025-03-18T10:32:32Z</time>
      </trkpt>
      <trkpt lat="48.68777" lon="1.96319">
        <ele>131.1</ele>
        <time>2025-03-18T10:32:39Z</time>
      </trkpt>
      <trkpt lat="48.68785" lon="1.9633">
        <ele>130.1</ele>
        <time>2025-03-18T10:32:47Z</time>
      </trkpt>
      <trkpt lat="48.68793" lon="1.96336">
        <ele>129.3</ele>
        <time>2025-03-18T10:33:03Z</time>
      </trkpt>
      <trkpt lat="48.68802" lon="1.96344">
        <ele>128.5</ele>
        <time>2025-03-18T10:33:10Z</time>
      </trkpt>
      <trkpt lat="48.6881" lon="1.96351">
        <ele>127.5</ele>
        <time>2025-03-18T10:33:19Z</time>
      </trkpt>
      <trkpt lat="48.68814" lon="1.96367">
        <ele>126.1</ele>
        <time>2025-03-18T10:33:25Z</time>
      </trkpt>
      <trkpt lat="48.68821" lon="1.96378">
        <ele>125</ele>
        <time>2025-03-18T10:33:32Z</time>
      </trkpt>
      <trkpt lat="48.68829" lon="1.96386">
        <ele>123.6</ele>
        <time>2025-03-18T10:33:40Z</time>
      </trkpt>
      <trkpt lat="48.68838" lon="1.96382">
        <ele>123.3</ele>
        <time>2025-03-18T10:33:51Z</time>
      </trkpt>
      <trkpt lat="48.68848" lon="1.96379">
        <ele>123</ele>
        <time>2025-03-18T10:33:59Z</time>
      </trkpt>
      <trkpt lat="48.68856" lon="1.9637">
        <ele>123</ele>
        <time>2025-03-18T10:34:07Z</time>
      </trkpt>
      <trkpt lat="48.68862" lon="1.96358">
        <ele>123.4</ele>
        <time>2025-03-18T10:34:15Z</time>
      </trkpt>
      <trkpt lat="48.68865" lon="1.96344">
        <ele>124.8</ele>
        <time>2025-03-18T10:34:23Z</time>
      </trkpt>
      <trkpt lat="48.6887" lon="1.96331">
        <ele>125.8</ele>
        <time>2025-03-18T10:34:31Z</time>
      </trkpt>
      <trkpt lat="48.68873" lon="1.96317">
        <ele>126.2</ele>
        <time>2025-03-18T10:34:39Z</time>
      </trkpt>
      <trkpt lat="48.68873" lon="1.96302">
        <ele>126.9</ele>
        <time>2025-03-18T10:34:46Z</time>
      </trkpt>
      <trkpt lat="48.68872" lon="1.96287">
        <ele>127.8</ele>
        <time>2025-03-18T10:34:53Z</time>
      </trkpt>
      <trkpt lat="48.68871" lon="1.96273">
        <ele>128.5</ele>
        <time>2025-03-18T10:35:00Z</time>
      </trkpt>
      <trkpt lat="48.6888" lon="1.96272">
        <ele>128</ele>
        <time>2025-03-18T10:35:17Z</time>
      </trkpt>
      <trkpt lat="48.68889" lon="1.96267">
        <ele>127.8</ele>
        <time>2025-03-18T10:35:25Z</time>
      </trkpt>
      <trkpt lat="48.68898" lon="1.96263">
        <ele>128.2</ele>
        <time>2025-03-18T10:35:33Z</time>
      </trkpt>
      <trkpt lat="48.68907" lon="1.96258">
        <ele>128.6</ele>
        <time>2025-03-18T10:35:40Z</time>
      </trkpt>
      <trkpt lat="48.68916" lon="1.96251">
        <ele>129</ele>
        <time>2025-03-18T10:35:48Z</time>
      </trkpt>
      <trkpt lat="48.68925" lon="1.96246">
        <ele>130.5</ele>
        <time>2025-03-18T10:35:55Z</time>
      </trkpt>
      <trkpt lat="48.68934" lon="1.96241">
        <ele>132.3</ele>
        <time>2025-03-18T10:36:02Z</time>
      </trkpt>
      <trkpt lat="48.68942" lon="1.96234">
        <ele>134</ele>
        <time>2025-03-18T10:36:09Z</time>
      </trkpt>
      <trkpt lat="48.68951" lon="1.96231">
        <ele>135.8</ele>
        <time>2025-03-18T10:36:16Z</time>
      </trkpt>
      <trkpt lat="48.68958" lon="1.96241">
        <ele>136</ele>
        <time>2025-03-18T10:36:23Z</time>
      </trkpt>
      <trkpt lat="48.68965" lon="1.96254">
        <ele>136.5</ele>
        <time>2025-03-18T10:36:30Z</time>
      </trkpt>
      <trkpt lat="48.68971" lon="1.96266">
        <ele>138.2</ele>
        <time>2025-03-18T10:36:37Z</time>
      </trkpt>
      <trkpt lat="48.68975" lon="1.96279">
        <ele>140.2</ele>
        <time>2025-03-18T10:36:45Z</time>
      </trkpt>
      <trkpt lat="48.68976" lon="1.96294">
        <ele>140.7</ele>
        <time>2025-03-18T10:36:52Z</time>
      </trkpt>
      <trkpt lat="48.68977" lon="1.96307">
        <ele>141.4</ele>
        <time>2025-03-18T10:36:59Z</time>
      </trkpt>
      <trkpt lat="48.68981" lon="1.96319">
        <ele>143</ele>
        <time>2025-03-18T10:37:07Z</time>
      </trkpt>
      <trkpt lat="48.68983" lon="1.96334">
        <ele>143.5</ele>
        <time>2025-03-18T10:37:16Z</time>
      </trkpt>
      <trkpt lat="48.68987" lon="1.96347">
        <ele>144.6</ele>
        <time>2025-03-18T10:37:25Z</time>
      </trkpt>
      <trkpt lat="48.68995" lon="1.96353">
        <ele>145.6</ele>
        <time>2025-03-18T10:37:33Z</time>
      </trkpt>
      <trkpt lat="48.69004" lon="1.9636">
        <ele>146.6</ele>
        <time>2025-03-18T10:37:42Z</time>
      </trkpt>
      <trkpt lat="48.69013" lon="1.96357">
        <ele>148.5</ele>
        <time>2025-03-18T10:37:51Z</time>
      </trkpt>
      <trkpt lat="48.69019" lon="1.96347">
        <ele>150.5</ele>
        <time>2025-03-18T10:38:01Z</time>
      </trkpt>
      <trkpt lat="48.69015" lon="1.96334">
        <ele>150.4</ele>
        <time>2025-03-18T10:38:09Z</time>
      </trkpt>
      <trkpt lat="48.69013" lon="1.9632">
        <ele>151</ele>
        <time>2025-03-18T10:38:16Z</time>
      </trkpt>
      <trkpt lat="48.69009" lon="1.96307">
        <ele>151.2</ele>
        <time>2025-03-18T10:38:24Z</time>
      </trkpt>
      <trkpt lat="48.69007" lon="1.96293">
        <ele>150.9</ele>
        <time>2025-03-18T10:38:33Z</time>
      </trkpt>
      <trkpt lat="48.69006" lon="1.96279">
        <ele>151.2</ele>
        <time>2025-03-18T10:38:42Z</time>
      </trkpt>
      <trkpt lat="48.69011" lon="1.96268">
        <ele>153.3</ele>
        <time>2025-03-18T10:38:51Z</time>
      </trkpt>
      <trkpt lat="48.69016" lon="1.96255">
        <ele>155.4</ele>
        <time>2025-03-18T10:39:02Z</time>
      </trkpt>
      <trkpt lat="48.69017" lon="1.9624">
        <ele>155.5</ele>
        <time>2025-03-18T10:39:11Z</time>
      </trkpt>
      <trkpt lat="48.69024" lon="1.96231">
        <ele>157.8</ele>
        <time>2025-03-18T10:39:19Z</time>
      </trkpt>
      <trkpt lat="48.6903" lon="1.9622">
        <ele>159.8</ele>
        <time>2025-03-18T10:39:27Z</time>
      </trkpt>
      <trkpt lat="48.69039" lon="1.96211">
        <ele>162.4</ele>
        <time>2025-03-18T10:39:36Z</time>
      </trkpt>
      <trkpt lat="48.69043" lon="1.96199">
        <ele>163.8</ele>
        <time>2025-03-18T10:39:45Z</time>
      </trkpt>
      <trkpt lat="48.69043" lon="1.96184">
        <ele>164.8</ele>
        <time>2025-03-18T10:39:56Z</time>
      </trkpt>
      <trkpt lat="48.69037" lon="1.96174">
        <ele>164.5</ele>
        <time>2025-03-18T10:40:05Z</time>
      </trkpt>
      <trkpt lat="48.69034" lon="1.96161">
        <ele>165.5</ele>
        <time>2025-03-18T10:40:15Z</time>
      </trkpt>
      <trkpt lat="48.69035" lon="1.96146">
        <ele>167</ele>
        <time>2025-03-18T10:40:26Z</time>
      </trkpt>
      <trkpt lat="48.69035" lon="1.96131">
        <ele>168.2</ele>
        <time>2025-03-18T10:40:36Z</time>
      </trkpt>
      <trkpt lat="48.69035" lon="1.96116">
        <ele>169.2</ele>
        <time>2025-03-18T10:40:46Z</time>
      </trkpt>
      <trkpt lat="48.69036" lon="1.96103">
        <ele>169.9</ele>
        <time>2025-03-18T10:40:55Z</time>
      </trkpt>
      <trkpt lat="48.69044" lon="1.96094">
        <ele>170.8</ele>
        <time>2025-03-18T10:42:10Z</time>
      </trkpt>
      <trkpt lat="48.69051" lon="1.96085">
        <ele>171.7</ele>
        <time>2025-03-18T10:42:17Z</time>
      </trkpt>
      <trkpt lat="48.69059" lon="1.96075">
        <ele>172.4</ele>
        <time>2025-03-18T10:42:24Z</time>
      </trkpt>
      <trkpt lat="48.69068" lon="1.9607">
        <ele>172.7</ele>
        <time>2025-03-18T10:42:30Z</time>
      </trkpt>
      <trkpt lat="48.69077" lon="1.96067">
        <ele>172.9</ele>
        <time>2025-03-18T10:42:37Z</time>
      </trkpt>
      <trkpt lat="48.69085" lon="1.9606">
        <ele>173</ele>
        <time>2025-03-18T10:42:44Z</time>
      </trkpt>
      <trkpt lat="48.69093" lon="1.96052">
        <ele>173</ele>
        <time>2025-03-18T10:42:52Z</time>
      </trkpt>
      <trkpt lat="48.69101" lon="1.96042">
        <ele>173</ele>
        <time>2025-03-18T10:42:59Z</time>
      </trkpt>
      <trkpt lat="48.69109" lon="1.96036">
        <ele>173</ele>
        <time>2025-03-18T10:43:06Z</time>
      </trkpt>
      <trkpt lat="48.69119" lon="1.96029">
        <ele>173</ele>
        <time>2025-03-18T10:43:14Z</time>
      </trkpt>
      <trkpt lat="48.69128" lon="1.96023">
        <ele>173.1</ele>
        <time>2025-03-18T10:43:22Z</time>
      </trkpt>
      <trkpt lat="48.69137" lon="1.96029">
        <ele>173</ele>
        <time>2025-03-18T10:43:30Z</time>
      </trkpt>
      <trkpt lat="48.69141" lon="1.96041">
        <ele>172.9</ele>
        <time>2025-03-18T10:43:38Z</time>
      </trkpt>
    </trkseg>
  </trk>
</gpx>